<?xml version="1.0" encoding="UTF-8" standalone="no" ?>
<gpx xmlns="http://www.topografix.com/GPX/1/1" xmlns:xsi="http://www.w3.org/2001/XMLSchema-instance" xsi:schemaLocation="http://www.topografix.com/GPX/1/1 http://www.topografix.com/GPX/1/1/gpx.xsd" version="1.1" creator="VisuGPX - https://www.visugpx.com">
  <metadata>
    <name>ccv_3juill11_82km</name>
    <desc><![CDATA[ccv_3juill11_82kmccv_3juill11_82kmccv_3juill11_82kmccv_3juill11_82kmccv_3juill11_82km]]></desc>
  </metadata>
  <trk>
    <name><![CDATA[Toaster Course]]></name>
    <trkseg>
      <trkpt lat="48.63424" lon="6.313">
        <ele>206</ele>
        <time>2011-06-29T00:00:00Z</time>
      </trkpt>
      <trkpt lat="48.63424" lon="6.31302">
        <ele>205</ele>
        <time>2011-06-29T00:00:00Z</time>
      </trkpt>
      <trkpt lat="48.63396" lon="6.31288">
        <ele>205</ele>
        <time>2011-06-29T00:00:04Z</time>
      </trkpt>
      <trkpt lat="48.63393" lon="6.31282">
        <ele>205</ele>
        <time>2011-06-29T00:00:04Z</time>
      </trkpt>
      <trkpt lat="48.63387" lon="6.31251">
        <ele>205</ele>
        <time>2011-06-29T00:00:07Z</time>
      </trkpt>
      <trkpt lat="48.63388" lon="6.31229">
        <ele>205</ele>
        <time>2011-06-29T00:00:09Z</time>
      </trkpt>
      <trkpt lat="48.63434" lon="6.31114">
        <ele>204</ele>
        <time>2011-06-29T00:00:21Z</time>
      </trkpt>
      <trkpt lat="48.63445" lon="6.31097">
        <ele>204</ele>
        <time>2011-06-29T00:00:23Z</time>
      </trkpt>
      <trkpt lat="48.63422" lon="6.31044">
        <ele>204</ele>
        <time>2011-06-29T00:00:29Z</time>
      </trkpt>
      <trkpt lat="48.63422" lon="6.31017">
        <ele>204</ele>
        <time>2011-06-29T00:00:31Z</time>
      </trkpt>
      <trkpt lat="48.63405" lon="6.30994">
        <ele>204</ele>
        <time>2011-06-29T00:00:34Z</time>
      </trkpt>
      <trkpt lat="48.63376" lon="6.30932">
        <ele>204</ele>
        <time>2011-06-29T00:00:41Z</time>
      </trkpt>
      <trkpt lat="48.63293" lon="6.30792">
        <ele>203</ele>
        <time>2011-06-29T00:00:57Z</time>
      </trkpt>
      <trkpt lat="48.63276" lon="6.30757">
        <ele>203</ele>
        <time>2011-06-29T00:01:03Z</time>
      </trkpt>
      <trkpt lat="48.6327" lon="6.30734">
        <ele>203</ele>
        <time>2011-06-29T00:01:06Z</time>
      </trkpt>
      <trkpt lat="48.63271" lon="6.307">
        <ele>204</ele>
        <time>2011-06-29T00:01:11Z</time>
      </trkpt>
      <trkpt lat="48.63289" lon="6.30658">
        <ele>204</ele>
        <time>2011-06-29T00:01:17Z</time>
      </trkpt>
      <trkpt lat="48.63299" lon="6.30623">
        <ele>205</ele>
        <time>2011-06-29T00:01:22Z</time>
      </trkpt>
      <trkpt lat="48.63323" lon="6.30487">
        <ele>205</ele>
        <time>2011-06-29T00:01:35Z</time>
      </trkpt>
      <trkpt lat="48.63334" lon="6.30444">
        <ele>205</ele>
        <time>2011-06-29T00:01:42Z</time>
      </trkpt>
      <trkpt lat="48.63258" lon="6.30315">
        <ele>209</ele>
        <time>2011-06-29T00:02:10Z</time>
      </trkpt>
      <trkpt lat="48.63243" lon="6.30258">
        <ele>209</ele>
        <time>2011-06-29T00:02:19Z</time>
      </trkpt>
      <trkpt lat="48.63175" lon="6.30174">
        <ele>212</ele>
        <time>2011-06-29T00:02:39Z</time>
      </trkpt>
      <trkpt lat="48.63164" lon="6.30185">
        <ele>212</ele>
        <time>2011-06-29T00:02:43Z</time>
      </trkpt>
      <trkpt lat="48.63113" lon="6.30205">
        <ele>214</ele>
        <time>2011-06-29T00:02:58Z</time>
      </trkpt>
      <trkpt lat="48.63063" lon="6.30267">
        <ele>217</ele>
        <time>2011-06-29T00:03:17Z</time>
      </trkpt>
      <trkpt lat="48.63053" lon="6.3029">
        <ele>216</ele>
        <time>2011-06-29T00:03:19Z</time>
      </trkpt>
      <trkpt lat="48.63063" lon="6.30324">
        <ele>215</ele>
        <time>2011-06-29T00:03:22Z</time>
      </trkpt>
      <trkpt lat="48.63159" lon="6.3048">
        <ele>211</ele>
        <time>2011-06-29T00:03:41Z</time>
      </trkpt>
      <trkpt lat="48.63195" lon="6.30548">
        <ele>209</ele>
        <time>2011-06-29T00:03:49Z</time>
      </trkpt>
      <trkpt lat="48.63156" lon="6.30586">
        <ele>208</ele>
        <time>2011-06-29T00:03:55Z</time>
      </trkpt>
      <trkpt lat="48.63089" lon="6.30673">
        <ele>206</ele>
        <time>2011-06-29T00:04:07Z</time>
      </trkpt>
      <trkpt lat="48.62921" lon="6.30874">
        <ele>206</ele>
        <time>2011-06-29T00:04:35Z</time>
      </trkpt>
      <trkpt lat="48.62712" lon="6.3111">
        <ele>214</ele>
        <time>2011-06-29T00:05:42Z</time>
      </trkpt>
      <trkpt lat="48.62641" lon="6.31237">
        <ele>211</ele>
        <time>2011-06-29T00:05:57Z</time>
      </trkpt>
      <trkpt lat="48.62563" lon="6.31343">
        <ele>209</ele>
        <time>2011-06-29T00:06:11Z</time>
      </trkpt>
      <trkpt lat="48.62533" lon="6.3139">
        <ele>209</ele>
        <time>2011-06-29T00:06:18Z</time>
      </trkpt>
      <trkpt lat="48.62466" lon="6.31504">
        <ele>210</ele>
        <time>2011-06-29T00:06:34Z</time>
      </trkpt>
      <trkpt lat="48.62411" lon="6.31621">
        <ele>206</ele>
        <time>2011-06-29T00:06:47Z</time>
      </trkpt>
      <trkpt lat="48.6239" lon="6.31676">
        <ele>205</ele>
        <time>2011-06-29T00:06:52Z</time>
      </trkpt>
      <trkpt lat="48.62347" lon="6.31837">
        <ele>204</ele>
        <time>2011-06-29T00:07:08Z</time>
      </trkpt>
      <trkpt lat="48.62328" lon="6.31888">
        <ele>203</ele>
        <time>2011-06-29T00:07:13Z</time>
      </trkpt>
      <trkpt lat="48.62268" lon="6.31969">
        <ele>203</ele>
        <time>2011-06-29T00:07:24Z</time>
      </trkpt>
      <trkpt lat="48.62215" lon="6.32053">
        <ele>203</ele>
        <time>2011-06-29T00:07:38Z</time>
      </trkpt>
      <trkpt lat="48.62166" lon="6.32154">
        <ele>205</ele>
        <time>2011-06-29T00:07:53Z</time>
      </trkpt>
      <trkpt lat="48.62069" lon="6.32373">
        <ele>206</ele>
        <time>2011-06-29T00:08:20Z</time>
      </trkpt>
      <trkpt lat="48.62054" lon="6.32403">
        <ele>206</ele>
        <time>2011-06-29T00:08:25Z</time>
      </trkpt>
      <trkpt lat="48.62017" lon="6.32459">
        <ele>207</ele>
        <time>2011-06-29T00:08:36Z</time>
      </trkpt>
      <trkpt lat="48.61978" lon="6.32495">
        <ele>208</ele>
        <time>2011-06-29T00:08:45Z</time>
      </trkpt>
      <trkpt lat="48.61925" lon="6.32529">
        <ele>213</ele>
        <time>2011-06-29T00:09:13Z</time>
      </trkpt>
      <trkpt lat="48.61897" lon="6.32557">
        <ele>216</ele>
        <time>2011-06-29T00:09:29Z</time>
      </trkpt>
      <trkpt lat="48.61863" lon="6.32599">
        <ele>216</ele>
        <time>2011-06-29T00:09:35Z</time>
      </trkpt>
      <trkpt lat="48.61803" lon="6.32697">
        <ele>216</ele>
        <time>2011-06-29T00:09:47Z</time>
      </trkpt>
      <trkpt lat="48.61767" lon="6.32732">
        <ele>216</ele>
        <time>2011-06-29T00:09:54Z</time>
      </trkpt>
      <trkpt lat="48.61736" lon="6.32749">
        <ele>216</ele>
        <time>2011-06-29T00:09:59Z</time>
      </trkpt>
      <trkpt lat="48.61704" lon="6.32758">
        <ele>217</ele>
        <time>2011-06-29T00:10:05Z</time>
      </trkpt>
      <trkpt lat="48.61674" lon="6.32758">
        <ele>217</ele>
        <time>2011-06-29T00:10:10Z</time>
      </trkpt>
      <trkpt lat="48.61626" lon="6.32742">
        <ele>217</ele>
        <time>2011-06-29T00:10:18Z</time>
      </trkpt>
      <trkpt lat="48.61594" lon="6.32753">
        <ele>218</ele>
        <time>2011-06-29T00:10:24Z</time>
      </trkpt>
      <trkpt lat="48.61544" lon="6.32806">
        <ele>218</ele>
        <time>2011-06-29T00:10:32Z</time>
      </trkpt>
      <trkpt lat="48.6133" lon="6.3301">
        <ele>218</ele>
        <time>2011-06-29T00:11:06Z</time>
      </trkpt>
      <trkpt lat="48.61294" lon="6.33058">
        <ele>217</ele>
        <time>2011-06-29T00:11:12Z</time>
      </trkpt>
      <trkpt lat="48.61257" lon="6.33121">
        <ele>216</ele>
        <time>2011-06-29T00:11:20Z</time>
      </trkpt>
      <trkpt lat="48.61235" lon="6.33144">
        <ele>215</ele>
        <time>2011-06-29T00:11:23Z</time>
      </trkpt>
      <trkpt lat="48.60946" lon="6.33219">
        <ele>212</ele>
        <time>2011-06-29T00:12:02Z</time>
      </trkpt>
      <trkpt lat="48.60946" lon="6.33219">
        <ele>212</ele>
        <time>2011-06-29T00:12:03Z</time>
      </trkpt>
      <trkpt lat="48.60811" lon="6.33252">
        <ele>210</ele>
        <time>2011-06-29T00:12:22Z</time>
      </trkpt>
      <trkpt lat="48.60765" lon="6.33238">
        <ele>209</ele>
        <time>2011-06-29T00:12:28Z</time>
      </trkpt>
      <trkpt lat="48.60552" lon="6.33087">
        <ele>207</ele>
        <time>2011-06-29T00:12:59Z</time>
      </trkpt>
      <trkpt lat="48.60442" lon="6.33002">
        <ele>211</ele>
        <time>2011-06-29T00:13:32Z</time>
      </trkpt>
      <trkpt lat="48.60351" lon="6.32914">
        <ele>211</ele>
        <time>2011-06-29T00:13:46Z</time>
      </trkpt>
      <trkpt lat="48.60336" lon="6.32904">
        <ele>210</ele>
        <time>2011-06-29T00:13:49Z</time>
      </trkpt>
      <trkpt lat="48.60317" lon="6.32899">
        <ele>210</ele>
        <time>2011-06-29T00:13:51Z</time>
      </trkpt>
      <trkpt lat="48.60266" lon="6.32906">
        <ele>209</ele>
        <time>2011-06-29T00:13:58Z</time>
      </trkpt>
      <trkpt lat="48.60067" lon="6.32983">
        <ele>205</ele>
        <time>2011-06-29T00:14:25Z</time>
      </trkpt>
      <trkpt lat="48.59931" lon="6.33001">
        <ele>209</ele>
        <time>2011-06-29T00:15:00Z</time>
      </trkpt>
      <trkpt lat="48.599" lon="6.33002">
        <ele>209</ele>
        <time>2011-06-29T00:15:05Z</time>
      </trkpt>
      <trkpt lat="48.59822" lon="6.32993">
        <ele>210</ele>
        <time>2011-06-29T00:15:18Z</time>
      </trkpt>
      <trkpt lat="48.59722" lon="6.33042">
        <ele>207</ele>
        <time>2011-06-29T00:15:32Z</time>
      </trkpt>
      <trkpt lat="48.59707" lon="6.33044">
        <ele>207</ele>
        <time>2011-06-29T00:15:36Z</time>
      </trkpt>
      <trkpt lat="48.59591" lon="6.33043">
        <ele>210</ele>
        <time>2011-06-29T00:16:02Z</time>
      </trkpt>
      <trkpt lat="48.59528" lon="6.33033">
        <ele>210</ele>
        <time>2011-06-29T00:16:13Z</time>
      </trkpt>
      <trkpt lat="48.59494" lon="6.3302">
        <ele>211</ele>
        <time>2011-06-29T00:16:19Z</time>
      </trkpt>
      <trkpt lat="48.59413" lon="6.32953">
        <ele>216</ele>
        <time>2011-06-29T00:16:51Z</time>
      </trkpt>
      <trkpt lat="48.59367" lon="6.32942">
        <ele>214</ele>
        <time>2011-06-29T00:16:58Z</time>
      </trkpt>
      <trkpt lat="48.59329" lon="6.3295">
        <ele>212</ele>
        <time>2011-06-29T00:17:03Z</time>
      </trkpt>
      <trkpt lat="48.59284" lon="6.32985">
        <ele>211</ele>
        <time>2011-06-29T00:17:09Z</time>
      </trkpt>
      <trkpt lat="48.59266" lon="6.33009">
        <ele>210</ele>
        <time>2011-06-29T00:17:13Z</time>
      </trkpt>
      <trkpt lat="48.59252" lon="6.33036">
        <ele>210</ele>
        <time>2011-06-29T00:17:16Z</time>
      </trkpt>
      <trkpt lat="48.59237" lon="6.33086">
        <ele>209</ele>
        <time>2011-06-29T00:17:20Z</time>
      </trkpt>
      <trkpt lat="48.59222" lon="6.33238">
        <ele>208</ele>
        <time>2011-06-29T00:17:34Z</time>
      </trkpt>
      <trkpt lat="48.59213" lon="6.33285">
        <ele>208</ele>
        <time>2011-06-29T00:17:39Z</time>
      </trkpt>
      <trkpt lat="48.59206" lon="6.33314">
        <ele>208</ele>
        <time>2011-06-29T00:17:42Z</time>
      </trkpt>
      <trkpt lat="48.592" lon="6.33314">
        <ele>208</ele>
        <time>2011-06-29T00:17:43Z</time>
      </trkpt>
      <trkpt lat="48.59194" lon="6.33326">
        <ele>208</ele>
        <time>2011-06-29T00:17:45Z</time>
      </trkpt>
      <trkpt lat="48.592" lon="6.33338">
        <ele>208</ele>
        <time>2011-06-29T00:17:46Z</time>
      </trkpt>
      <trkpt lat="48.59112" lon="6.33477">
        <ele>209</ele>
        <time>2011-06-29T00:18:06Z</time>
      </trkpt>
      <trkpt lat="48.59091" lon="6.3352">
        <ele>208</ele>
        <time>2011-06-29T00:18:10Z</time>
      </trkpt>
      <trkpt lat="48.59078" lon="6.33557">
        <ele>208</ele>
        <time>2011-06-29T00:18:14Z</time>
      </trkpt>
      <trkpt lat="48.59048" lon="6.33681">
        <ele>208</ele>
        <time>2011-06-29T00:18:26Z</time>
      </trkpt>
      <trkpt lat="48.59009" lon="6.33893">
        <ele>207</ele>
        <time>2011-06-29T00:18:45Z</time>
      </trkpt>
      <trkpt lat="48.58912" lon="6.34248">
        <ele>207</ele>
        <time>2011-06-29T00:19:19Z</time>
      </trkpt>
      <trkpt lat="48.58894" lon="6.34288">
        <ele>207</ele>
        <time>2011-06-29T00:19:24Z</time>
      </trkpt>
      <trkpt lat="48.58868" lon="6.34328">
        <ele>207</ele>
        <time>2011-06-29T00:19:30Z</time>
      </trkpt>
      <trkpt lat="48.58783" lon="6.34416">
        <ele>208</ele>
        <time>2011-06-29T00:19:46Z</time>
      </trkpt>
      <trkpt lat="48.58767" lon="6.34454">
        <ele>208</ele>
        <time>2011-06-29T00:19:50Z</time>
      </trkpt>
      <trkpt lat="48.58721" lon="6.34474">
        <ele>208</ele>
        <time>2011-06-29T00:19:56Z</time>
      </trkpt>
      <trkpt lat="48.58683" lon="6.345">
        <ele>208</ele>
        <time>2011-06-29T00:20:02Z</time>
      </trkpt>
      <trkpt lat="48.58572" lon="6.34597">
        <ele>208</ele>
        <time>2011-06-29T00:20:19Z</time>
      </trkpt>
      <trkpt lat="48.58506" lon="6.34642">
        <ele>208</ele>
        <time>2011-06-29T00:20:29Z</time>
      </trkpt>
      <trkpt lat="48.58446" lon="6.34663">
        <ele>208</ele>
        <time>2011-06-29T00:20:37Z</time>
      </trkpt>
      <trkpt lat="48.58284" lon="6.34702">
        <ele>208</ele>
        <time>2011-06-29T00:20:59Z</time>
      </trkpt>
      <trkpt lat="48.5823" lon="6.34726">
        <ele>208</ele>
        <time>2011-06-29T00:21:07Z</time>
      </trkpt>
      <trkpt lat="48.571" lon="6.35401">
        <ele>209</ele>
        <time>2011-06-29T00:23:53Z</time>
      </trkpt>
      <trkpt lat="48.57058" lon="6.35433">
        <ele>209</ele>
        <time>2011-06-29T00:24:00Z</time>
      </trkpt>
      <trkpt lat="48.56979" lon="6.35532">
        <ele>210</ele>
        <time>2011-06-29T00:24:17Z</time>
      </trkpt>
      <trkpt lat="48.56909" lon="6.3564">
        <ele>210</ele>
        <time>2011-06-29T00:24:30Z</time>
      </trkpt>
      <trkpt lat="48.56855" lon="6.35739">
        <ele>210</ele>
        <time>2011-06-29T00:24:43Z</time>
      </trkpt>
      <trkpt lat="48.56736" lon="6.3598">
        <ele>211</ele>
        <time>2011-06-29T00:25:12Z</time>
      </trkpt>
      <trkpt lat="48.56082" lon="6.37232">
        <ele>211</ele>
        <time>2011-06-29T00:27:33Z</time>
      </trkpt>
      <trkpt lat="48.55924" lon="6.37539">
        <ele>210</ele>
        <time>2011-06-29T00:28:07Z</time>
      </trkpt>
      <trkpt lat="48.55909" lon="6.37577">
        <ele>210</ele>
        <time>2011-06-29T00:28:14Z</time>
      </trkpt>
      <trkpt lat="48.55873" lon="6.37729">
        <ele>213</ele>
        <time>2011-06-29T00:28:38Z</time>
      </trkpt>
      <trkpt lat="48.55781" lon="6.38233">
        <ele>214</ele>
        <time>2011-06-29T00:29:28Z</time>
      </trkpt>
      <trkpt lat="48.55774" lon="6.3829">
        <ele>214</ele>
        <time>2011-06-29T00:29:34Z</time>
      </trkpt>
      <trkpt lat="48.55773" lon="6.38332">
        <ele>214</ele>
        <time>2011-06-29T00:29:39Z</time>
      </trkpt>
      <trkpt lat="48.55777" lon="6.38386">
        <ele>215</ele>
        <time>2011-06-29T00:29:45Z</time>
      </trkpt>
      <trkpt lat="48.55788" lon="6.38461">
        <ele>215</ele>
        <time>2011-06-29T00:29:52Z</time>
      </trkpt>
      <trkpt lat="48.55784" lon="6.38513">
        <ele>215</ele>
        <time>2011-06-29T00:29:57Z</time>
      </trkpt>
      <trkpt lat="48.55773" lon="6.38557">
        <ele>215</ele>
        <time>2011-06-29T00:30:01Z</time>
      </trkpt>
      <trkpt lat="48.5572" lon="6.38721">
        <ele>219</ele>
        <time>2011-06-29T00:30:33Z</time>
      </trkpt>
      <trkpt lat="48.55693" lon="6.38855">
        <ele>217</ele>
        <time>2011-06-29T00:30:46Z</time>
      </trkpt>
      <trkpt lat="48.55675" lon="6.38853">
        <ele>217</ele>
        <time>2011-06-29T00:30:50Z</time>
      </trkpt>
      <trkpt lat="48.55626" lon="6.38863">
        <ele>219</ele>
        <time>2011-06-29T00:31:03Z</time>
      </trkpt>
      <trkpt lat="48.55601" lon="6.38857">
        <ele>220</ele>
        <time>2011-06-29T00:31:10Z</time>
      </trkpt>
      <trkpt lat="48.55504" lon="6.38768">
        <ele>225</ele>
        <time>2011-06-29T00:31:45Z</time>
      </trkpt>
      <trkpt lat="48.55344" lon="6.38663">
        <ele>231</ele>
        <time>2011-06-29T00:32:32Z</time>
      </trkpt>
      <trkpt lat="48.55318" lon="6.38648">
        <ele>231</ele>
        <time>2011-06-29T00:32:39Z</time>
      </trkpt>
      <trkpt lat="48.55217" lon="6.38612">
        <ele>234</ele>
        <time>2011-06-29T00:33:02Z</time>
      </trkpt>
      <trkpt lat="48.55194" lon="6.38613">
        <ele>233</ele>
        <time>2011-06-29T00:33:05Z</time>
      </trkpt>
      <trkpt lat="48.55074" lon="6.38645">
        <ele>233</ele>
        <time>2011-06-29T00:33:21Z</time>
      </trkpt>
      <trkpt lat="48.55007" lon="6.38648">
        <ele>234</ele>
        <time>2011-06-29T00:33:38Z</time>
      </trkpt>
      <trkpt lat="48.54893" lon="6.38673">
        <ele>238</ele>
        <time>2011-06-29T00:34:06Z</time>
      </trkpt>
      <trkpt lat="48.54836" lon="6.38673">
        <ele>240</ele>
        <time>2011-06-29T00:34:23Z</time>
      </trkpt>
      <trkpt lat="48.54796" lon="6.38667">
        <ele>242</ele>
        <time>2011-06-29T00:34:35Z</time>
      </trkpt>
      <trkpt lat="48.54771" lon="6.38652">
        <ele>242</ele>
        <time>2011-06-29T00:34:39Z</time>
      </trkpt>
      <trkpt lat="48.5471" lon="6.38589">
        <ele>243</ele>
        <time>2011-06-29T00:34:52Z</time>
      </trkpt>
      <trkpt lat="48.54634" lon="6.38549">
        <ele>240</ele>
        <time>2011-06-29T00:35:03Z</time>
      </trkpt>
      <trkpt lat="48.54607" lon="6.38529">
        <ele>239</ele>
        <time>2011-06-29T00:35:07Z</time>
      </trkpt>
      <trkpt lat="48.54578" lon="6.38487">
        <ele>238</ele>
        <time>2011-06-29T00:35:12Z</time>
      </trkpt>
      <trkpt lat="48.54556" lon="6.38408">
        <ele>238</ele>
        <time>2011-06-29T00:35:20Z</time>
      </trkpt>
      <trkpt lat="48.5454" lon="6.38383">
        <ele>238</ele>
        <time>2011-06-29T00:35:24Z</time>
      </trkpt>
      <trkpt lat="48.54434" lon="6.38331">
        <ele>240</ele>
        <time>2011-06-29T00:35:46Z</time>
      </trkpt>
      <trkpt lat="48.54393" lon="6.38327">
        <ele>241</ele>
        <time>2011-06-29T00:35:57Z</time>
      </trkpt>
      <trkpt lat="48.54374" lon="6.38333">
        <ele>241</ele>
        <time>2011-06-29T00:36:02Z</time>
      </trkpt>
      <trkpt lat="48.54352" lon="6.38354">
        <ele>242</ele>
        <time>2011-06-29T00:36:08Z</time>
      </trkpt>
      <trkpt lat="48.54327" lon="6.38399">
        <ele>244</ele>
        <time>2011-06-29T00:36:19Z</time>
      </trkpt>
      <trkpt lat="48.54314" lon="6.38415">
        <ele>244</ele>
        <time>2011-06-29T00:36:24Z</time>
      </trkpt>
      <trkpt lat="48.543" lon="6.38424">
        <ele>245</ele>
        <time>2011-06-29T00:36:29Z</time>
      </trkpt>
      <trkpt lat="48.54283" lon="6.38427">
        <ele>246</ele>
        <time>2011-06-29T00:36:35Z</time>
      </trkpt>
      <trkpt lat="48.54188" lon="6.38421">
        <ele>251</ele>
        <time>2011-06-29T00:37:06Z</time>
      </trkpt>
      <trkpt lat="48.54117" lon="6.38405">
        <ele>255</ele>
        <time>2011-06-29T00:37:34Z</time>
      </trkpt>
      <trkpt lat="48.5408" lon="6.38405">
        <ele>258</ele>
        <time>2011-06-29T00:37:48Z</time>
      </trkpt>
      <trkpt lat="48.5406" lon="6.38399">
        <ele>257</ele>
        <time>2011-06-29T00:37:51Z</time>
      </trkpt>
      <trkpt lat="48.54031" lon="6.3838">
        <ele>256</ele>
        <time>2011-06-29T00:37:55Z</time>
      </trkpt>
      <trkpt lat="48.54004" lon="6.38448">
        <ele>255</ele>
        <time>2011-06-29T00:38:02Z</time>
      </trkpt>
      <trkpt lat="48.5396" lon="6.38536">
        <ele>254</ele>
        <time>2011-06-29T00:38:12Z</time>
      </trkpt>
      <trkpt lat="48.5396" lon="6.38536">
        <ele>254</ele>
        <time>2011-06-29T00:38:13Z</time>
      </trkpt>
      <trkpt lat="48.5394" lon="6.38596">
        <ele>253</ele>
        <time>2011-06-29T00:38:19Z</time>
      </trkpt>
      <trkpt lat="48.53915" lon="6.38735">
        <ele>252</ele>
        <time>2011-06-29T00:38:32Z</time>
      </trkpt>
      <trkpt lat="48.53904" lon="6.38747">
        <ele>252</ele>
        <time>2011-06-29T00:38:35Z</time>
      </trkpt>
      <trkpt lat="48.53884" lon="6.38746">
        <ele>252</ele>
        <time>2011-06-29T00:38:39Z</time>
      </trkpt>
      <trkpt lat="48.53814" lon="6.38712">
        <ele>254</ele>
        <time>2011-06-29T00:38:54Z</time>
      </trkpt>
      <trkpt lat="48.53756" lon="6.38704">
        <ele>255</ele>
        <time>2011-06-29T00:39:07Z</time>
      </trkpt>
      <trkpt lat="48.53722" lon="6.38715">
        <ele>256</ele>
        <time>2011-06-29T00:39:15Z</time>
      </trkpt>
      <trkpt lat="48.53684" lon="6.38737">
        <ele>256</ele>
        <time>2011-06-29T00:39:23Z</time>
      </trkpt>
      <trkpt lat="48.53618" lon="6.38744">
        <ele>258</ele>
        <time>2011-06-29T00:39:37Z</time>
      </trkpt>
      <trkpt lat="48.53532" lon="6.38782">
        <ele>260</ele>
        <time>2011-06-29T00:39:57Z</time>
      </trkpt>
      <trkpt lat="48.5349" lon="6.38784">
        <ele>261</ele>
        <time>2011-06-29T00:40:06Z</time>
      </trkpt>
      <trkpt lat="48.5344" lon="6.38774">
        <ele>260</ele>
        <time>2011-06-29T00:40:13Z</time>
      </trkpt>
      <trkpt lat="48.53413" lon="6.38775">
        <ele>260</ele>
        <time>2011-06-29T00:40:17Z</time>
      </trkpt>
      <trkpt lat="48.53355" lon="6.38798">
        <ele>260</ele>
        <time>2011-06-29T00:40:25Z</time>
      </trkpt>
      <trkpt lat="48.53302" lon="6.38802">
        <ele>259</ele>
        <time>2011-06-29T00:40:32Z</time>
      </trkpt>
      <trkpt lat="48.53253" lon="6.38817">
        <ele>259</ele>
        <time>2011-06-29T00:40:38Z</time>
      </trkpt>
      <trkpt lat="48.53228" lon="6.38833">
        <ele>259</ele>
        <time>2011-06-29T00:40:44Z</time>
      </trkpt>
      <trkpt lat="48.53173" lon="6.38897">
        <ele>261</ele>
        <time>2011-06-29T00:40:59Z</time>
      </trkpt>
      <trkpt lat="48.53072" lon="6.38981">
        <ele>261</ele>
        <time>2011-06-29T00:41:15Z</time>
      </trkpt>
      <trkpt lat="48.53042" lon="6.39018">
        <ele>260</ele>
        <time>2011-06-29T00:41:20Z</time>
      </trkpt>
      <trkpt lat="48.52989" lon="6.39102">
        <ele>260</ele>
        <time>2011-06-29T00:41:30Z</time>
      </trkpt>
      <trkpt lat="48.52938" lon="6.39172">
        <ele>259</ele>
        <time>2011-06-29T00:41:39Z</time>
      </trkpt>
      <trkpt lat="48.52878" lon="6.39235">
        <ele>258</ele>
        <time>2011-06-29T00:41:49Z</time>
      </trkpt>
      <trkpt lat="48.52837" lon="6.39291">
        <ele>258</ele>
        <time>2011-06-29T00:42:00Z</time>
      </trkpt>
      <trkpt lat="48.52818" lon="6.39304">
        <ele>259</ele>
        <time>2011-06-29T00:42:04Z</time>
      </trkpt>
      <trkpt lat="48.52775" lon="6.39321">
        <ele>260</ele>
        <time>2011-06-29T00:42:13Z</time>
      </trkpt>
      <trkpt lat="48.52708" lon="6.39323">
        <ele>261</ele>
        <time>2011-06-29T00:42:28Z</time>
      </trkpt>
      <trkpt lat="48.52682" lon="6.39317">
        <ele>262</ele>
        <time>2011-06-29T00:42:34Z</time>
      </trkpt>
      <trkpt lat="48.52607" lon="6.39284">
        <ele>262</ele>
        <time>2011-06-29T00:42:47Z</time>
      </trkpt>
      <trkpt lat="48.52556" lon="6.39285">
        <ele>263</ele>
        <time>2011-06-29T00:42:55Z</time>
      </trkpt>
      <trkpt lat="48.52497" lon="6.39305">
        <ele>265</ele>
        <time>2011-06-29T00:43:13Z</time>
      </trkpt>
      <trkpt lat="48.52418" lon="6.39355">
        <ele>269</ele>
        <time>2011-06-29T00:43:39Z</time>
      </trkpt>
      <trkpt lat="48.5235" lon="6.39379">
        <ele>270</ele>
        <time>2011-06-29T00:43:55Z</time>
      </trkpt>
      <trkpt lat="48.52276" lon="6.3943">
        <ele>273</ele>
        <time>2011-06-29T00:44:15Z</time>
      </trkpt>
      <trkpt lat="48.52172" lon="6.39484">
        <ele>275</ele>
        <time>2011-06-29T00:44:37Z</time>
      </trkpt>
      <trkpt lat="48.5211" lon="6.39541">
        <ele>274</ele>
        <time>2011-06-29T00:44:47Z</time>
      </trkpt>
      <trkpt lat="48.52007" lon="6.39678">
        <ele>273</ele>
        <time>2011-06-29T00:45:05Z</time>
      </trkpt>
      <trkpt lat="48.5194" lon="6.39776">
        <ele>272</ele>
        <time>2011-06-29T00:45:18Z</time>
      </trkpt>
      <trkpt lat="48.51911" lon="6.3981">
        <ele>272</ele>
        <time>2011-06-29T00:45:25Z</time>
      </trkpt>
      <trkpt lat="48.5184" lon="6.39871">
        <ele>274</ele>
        <time>2011-06-29T00:45:42Z</time>
      </trkpt>
      <trkpt lat="48.51762" lon="6.39908">
        <ele>278</ele>
        <time>2011-06-29T00:46:09Z</time>
      </trkpt>
      <trkpt lat="48.51727" lon="6.39936">
        <ele>280</ele>
        <time>2011-06-29T00:46:22Z</time>
      </trkpt>
      <trkpt lat="48.5163" lon="6.40053">
        <ele>279</ele>
        <time>2011-06-29T00:46:39Z</time>
      </trkpt>
      <trkpt lat="48.51618" lon="6.40075">
        <ele>279</ele>
        <time>2011-06-29T00:46:43Z</time>
      </trkpt>
      <trkpt lat="48.51516" lon="6.40174">
        <ele>283</ele>
        <time>2011-06-29T00:47:13Z</time>
      </trkpt>
      <trkpt lat="48.51461" lon="6.40243">
        <ele>284</ele>
        <time>2011-06-29T00:47:30Z</time>
      </trkpt>
      <trkpt lat="48.51416" lon="6.40288">
        <ele>286</ele>
        <time>2011-06-29T00:47:42Z</time>
      </trkpt>
      <trkpt lat="48.51319" lon="6.40339">
        <ele>284</ele>
        <time>2011-06-29T00:47:56Z</time>
      </trkpt>
      <trkpt lat="48.51203" lon="6.4039">
        <ele>282</ele>
        <time>2011-06-29T00:48:12Z</time>
      </trkpt>
      <trkpt lat="48.51108" lon="6.40441">
        <ele>281</ele>
        <time>2011-06-29T00:48:25Z</time>
      </trkpt>
      <trkpt lat="48.50815" lon="6.40582">
        <ele>265</ele>
        <time>2011-06-29T00:49:06Z</time>
      </trkpt>
      <trkpt lat="48.50778" lon="6.40587">
        <ele>265</ele>
        <time>2011-06-29T00:49:11Z</time>
      </trkpt>
      <trkpt lat="48.50736" lon="6.40565">
        <ele>265</ele>
        <time>2011-06-29T00:49:17Z</time>
      </trkpt>
      <trkpt lat="48.50711" lon="6.40563">
        <ele>265</ele>
        <time>2011-06-29T00:49:21Z</time>
      </trkpt>
      <trkpt lat="48.50593" lon="6.40634">
        <ele>265</ele>
        <time>2011-06-29T00:49:38Z</time>
      </trkpt>
      <trkpt lat="48.50565" lon="6.40638">
        <ele>265</ele>
        <time>2011-06-29T00:49:43Z</time>
      </trkpt>
      <trkpt lat="48.50519" lon="6.40629">
        <ele>265</ele>
        <time>2011-06-29T00:49:52Z</time>
      </trkpt>
      <trkpt lat="48.50445" lon="6.40594">
        <ele>267</ele>
        <time>2011-06-29T00:50:06Z</time>
      </trkpt>
      <trkpt lat="48.50335" lon="6.40555">
        <ele>264</ele>
        <time>2011-06-29T00:50:21Z</time>
      </trkpt>
      <trkpt lat="48.50269" lon="6.40522">
        <ele>261</ele>
        <time>2011-06-29T00:50:30Z</time>
      </trkpt>
      <trkpt lat="48.50245" lon="6.40526">
        <ele>261</ele>
        <time>2011-06-29T00:50:34Z</time>
      </trkpt>
      <trkpt lat="48.50189" lon="6.40574">
        <ele>262</ele>
        <time>2011-06-29T00:50:47Z</time>
      </trkpt>
      <trkpt lat="48.5017" lon="6.40571">
        <ele>262</ele>
        <time>2011-06-29T00:50:51Z</time>
      </trkpt>
      <trkpt lat="48.50152" lon="6.40555">
        <ele>263</ele>
        <time>2011-06-29T00:50:56Z</time>
      </trkpt>
      <trkpt lat="48.5013" lon="6.4055">
        <ele>263</ele>
        <time>2011-06-29T00:51:02Z</time>
      </trkpt>
      <trkpt lat="48.50113" lon="6.40562">
        <ele>264</ele>
        <time>2011-06-29T00:51:08Z</time>
      </trkpt>
      <trkpt lat="48.50056" lon="6.40654">
        <ele>268</ele>
        <time>2011-06-29T00:51:32Z</time>
      </trkpt>
      <trkpt lat="48.49982" lon="6.40749">
        <ele>269</ele>
        <time>2011-06-29T00:51:49Z</time>
      </trkpt>
      <trkpt lat="48.50016" lon="6.40804">
        <ele>267</ele>
        <time>2011-06-29T00:51:56Z</time>
      </trkpt>
      <trkpt lat="48.5004" lon="6.40833">
        <ele>266</ele>
        <time>2011-06-29T00:52:00Z</time>
      </trkpt>
      <trkpt lat="48.50142" lon="6.40913">
        <ele>264</ele>
        <time>2011-06-29T00:52:15Z</time>
      </trkpt>
      <trkpt lat="48.50154" lon="6.40934">
        <ele>263</ele>
        <time>2011-06-29T00:52:18Z</time>
      </trkpt>
      <trkpt lat="48.50156" lon="6.40947">
        <ele>263</ele>
        <time>2011-06-29T00:52:19Z</time>
      </trkpt>
      <trkpt lat="48.50154" lon="6.40998">
        <ele>262</ele>
        <time>2011-06-29T00:52:23Z</time>
      </trkpt>
      <trkpt lat="48.50142" lon="6.4104">
        <ele>261</ele>
        <time>2011-06-29T00:52:27Z</time>
      </trkpt>
      <trkpt lat="48.50063" lon="6.41187">
        <ele>259</ele>
        <time>2011-06-29T00:52:44Z</time>
      </trkpt>
      <trkpt lat="48.50016" lon="6.41292">
        <ele>258</ele>
        <time>2011-06-29T00:52:55Z</time>
      </trkpt>
      <trkpt lat="48.50014" lon="6.4131">
        <ele>258</ele>
        <time>2011-06-29T00:52:57Z</time>
      </trkpt>
      <trkpt lat="48.5002" lon="6.41348">
        <ele>258</ele>
        <time>2011-06-29T00:53:01Z</time>
      </trkpt>
      <trkpt lat="48.50041" lon="6.41403">
        <ele>258</ele>
        <time>2011-06-29T00:53:06Z</time>
      </trkpt>
      <trkpt lat="48.50041" lon="6.41403">
        <ele>258</ele>
        <time>2011-06-29T00:53:07Z</time>
      </trkpt>
      <trkpt lat="48.5005" lon="6.41439">
        <ele>259</ele>
        <time>2011-06-29T00:53:16Z</time>
      </trkpt>
      <trkpt lat="48.50054" lon="6.41475">
        <ele>260</ele>
        <time>2011-06-29T00:53:25Z</time>
      </trkpt>
      <trkpt lat="48.50041" lon="6.4149">
        <ele>261</ele>
        <time>2011-06-29T00:53:30Z</time>
      </trkpt>
      <trkpt lat="48.49964" lon="6.41625">
        <ele>268</ele>
        <time>2011-06-29T00:54:12Z</time>
      </trkpt>
      <trkpt lat="48.49976" lon="6.41651">
        <ele>268</ele>
        <time>2011-06-29T00:54:17Z</time>
      </trkpt>
      <trkpt lat="48.49965" lon="6.41674">
        <ele>269</ele>
        <time>2011-06-29T00:54:22Z</time>
      </trkpt>
      <trkpt lat="48.4997" lon="6.41704">
        <ele>269</ele>
        <time>2011-06-29T00:54:28Z</time>
      </trkpt>
      <trkpt lat="48.49969" lon="6.41717">
        <ele>270</ele>
        <time>2011-06-29T00:54:30Z</time>
      </trkpt>
      <trkpt lat="48.49932" lon="6.41779">
        <ele>272</ele>
        <time>2011-06-29T00:54:44Z</time>
      </trkpt>
      <trkpt lat="48.49888" lon="6.41872">
        <ele>273</ele>
        <time>2011-06-29T00:55:01Z</time>
      </trkpt>
      <trkpt lat="48.49893" lon="6.41908">
        <ele>274</ele>
        <time>2011-06-29T00:55:06Z</time>
      </trkpt>
      <trkpt lat="48.49947" lon="6.42053">
        <ele>275</ele>
        <time>2011-06-29T00:55:24Z</time>
      </trkpt>
      <trkpt lat="48.49977" lon="6.4211">
        <ele>276</ele>
        <time>2011-06-29T00:55:35Z</time>
      </trkpt>
      <trkpt lat="48.50009" lon="6.42153">
        <ele>277</ele>
        <time>2011-06-29T00:55:45Z</time>
      </trkpt>
      <trkpt lat="48.50014" lon="6.4217">
        <ele>277</ele>
        <time>2011-06-29T00:55:48Z</time>
      </trkpt>
      <trkpt lat="48.50009" lon="6.422">
        <ele>278</ele>
        <time>2011-06-29T00:55:54Z</time>
      </trkpt>
      <trkpt lat="48.49958" lon="6.42347">
        <ele>282</ele>
        <time>2011-06-29T00:56:24Z</time>
      </trkpt>
      <trkpt lat="48.49947" lon="6.4242">
        <ele>282</ele>
        <time>2011-06-29T00:56:33Z</time>
      </trkpt>
      <trkpt lat="48.49947" lon="6.42438">
        <ele>282</ele>
        <time>2011-06-29T00:56:36Z</time>
      </trkpt>
      <trkpt lat="48.49959" lon="6.42459">
        <ele>283</ele>
        <time>2011-06-29T00:56:39Z</time>
      </trkpt>
      <trkpt lat="48.50001" lon="6.425">
        <ele>284</ele>
        <time>2011-06-29T00:56:49Z</time>
      </trkpt>
      <trkpt lat="48.50024" lon="6.42529">
        <ele>283</ele>
        <time>2011-06-29T00:56:53Z</time>
      </trkpt>
      <trkpt lat="48.50051" lon="6.42572">
        <ele>283</ele>
        <time>2011-06-29T00:56:58Z</time>
      </trkpt>
      <trkpt lat="48.50076" lon="6.42628">
        <ele>283</ele>
        <time>2011-06-29T00:57:04Z</time>
      </trkpt>
      <trkpt lat="48.50099" lon="6.42693">
        <ele>282</ele>
        <time>2011-06-29T00:57:11Z</time>
      </trkpt>
      <trkpt lat="48.50134" lon="6.42813">
        <ele>281</ele>
        <time>2011-06-29T00:57:22Z</time>
      </trkpt>
      <trkpt lat="48.50147" lon="6.42891">
        <ele>284</ele>
        <time>2011-06-29T00:57:42Z</time>
      </trkpt>
      <trkpt lat="48.50161" lon="6.43021">
        <ele>289</ele>
        <time>2011-06-29T00:58:13Z</time>
      </trkpt>
      <trkpt lat="48.50176" lon="6.43077">
        <ele>289</ele>
        <time>2011-06-29T00:58:21Z</time>
      </trkpt>
      <trkpt lat="48.50209" lon="6.43166">
        <ele>291</ele>
        <time>2011-06-29T00:58:36Z</time>
      </trkpt>
      <trkpt lat="48.50275" lon="6.43306">
        <ele>291</ele>
        <time>2011-06-29T00:58:51Z</time>
      </trkpt>
      <trkpt lat="48.50302" lon="6.43346">
        <ele>290</ele>
        <time>2011-06-29T00:58:56Z</time>
      </trkpt>
      <trkpt lat="48.50306" lon="6.43365">
        <ele>290</ele>
        <time>2011-06-29T00:58:58Z</time>
      </trkpt>
      <trkpt lat="48.50296" lon="6.43682">
        <ele>287</ele>
        <time>2011-06-29T00:59:26Z</time>
      </trkpt>
      <trkpt lat="48.50281" lon="6.43752">
        <ele>282</ele>
        <time>2011-06-29T00:59:32Z</time>
      </trkpt>
      <trkpt lat="48.50227" lon="6.43917">
        <ele>272</ele>
        <time>2011-06-29T00:59:48Z</time>
      </trkpt>
      <trkpt lat="48.50222" lon="6.43957">
        <ele>271</ele>
        <time>2011-06-29T00:59:52Z</time>
      </trkpt>
      <trkpt lat="48.50226" lon="6.44091">
        <ele>268</ele>
        <time>2011-06-29T01:00:04Z</time>
      </trkpt>
      <trkpt lat="48.50225" lon="6.44185">
        <ele>265</ele>
        <time>2011-06-29T01:00:12Z</time>
      </trkpt>
      <trkpt lat="48.50247" lon="6.4438">
        <ele>259</ele>
        <time>2011-06-29T01:00:30Z</time>
      </trkpt>
      <trkpt lat="48.50249" lon="6.44475">
        <ele>255</ele>
        <time>2011-06-29T01:00:38Z</time>
      </trkpt>
      <trkpt lat="48.50233" lon="6.44524">
        <ele>254</ele>
        <time>2011-06-29T01:00:43Z</time>
      </trkpt>
      <trkpt lat="48.50164" lon="6.44639">
        <ele>245</ele>
        <time>2011-06-29T01:00:57Z</time>
      </trkpt>
      <trkpt lat="48.50151" lon="6.44663">
        <ele>244</ele>
        <time>2011-06-29T01:00:59Z</time>
      </trkpt>
      <trkpt lat="48.50146" lon="6.44684">
        <ele>244</ele>
        <time>2011-06-29T01:01:01Z</time>
      </trkpt>
      <trkpt lat="48.50148" lon="6.44714">
        <ele>244</ele>
        <time>2011-06-29T01:01:04Z</time>
      </trkpt>
      <trkpt lat="48.50179" lon="6.44834">
        <ele>243</ele>
        <time>2011-06-29T01:01:16Z</time>
      </trkpt>
      <trkpt lat="48.50179" lon="6.44834">
        <ele>243</ele>
        <time>2011-06-29T01:01:17Z</time>
      </trkpt>
      <trkpt lat="48.50192" lon="6.44904">
        <ele>244</ele>
        <time>2011-06-29T01:01:28Z</time>
      </trkpt>
      <trkpt lat="48.50188" lon="6.44947">
        <ele>244</ele>
        <time>2011-06-29T01:01:34Z</time>
      </trkpt>
      <trkpt lat="48.4996" lon="6.45119">
        <ele>251</ele>
        <time>2011-06-29T01:02:33Z</time>
      </trkpt>
      <trkpt lat="48.49934" lon="6.45144">
        <ele>249</ele>
        <time>2011-06-29T01:02:37Z</time>
      </trkpt>
      <trkpt lat="48.49889" lon="6.45216">
        <ele>245</ele>
        <time>2011-06-29T01:02:46Z</time>
      </trkpt>
      <trkpt lat="48.49752" lon="6.45378">
        <ele>239</ele>
        <time>2011-06-29T01:03:09Z</time>
      </trkpt>
      <trkpt lat="48.49625" lon="6.45541">
        <ele>241</ele>
        <time>2011-06-29T01:03:39Z</time>
      </trkpt>
      <trkpt lat="48.49479" lon="6.45704">
        <ele>250</ele>
        <time>2011-06-29T01:04:40Z</time>
      </trkpt>
      <trkpt lat="48.49307" lon="6.45911">
        <ele>262</ele>
        <time>2011-06-29T01:05:57Z</time>
      </trkpt>
      <trkpt lat="48.49261" lon="6.45958">
        <ele>263</ele>
        <time>2011-06-29T01:06:12Z</time>
      </trkpt>
      <trkpt lat="48.49055" lon="6.46119">
        <ele>272</ele>
        <time>2011-06-29T01:07:15Z</time>
      </trkpt>
      <trkpt lat="48.49059" lon="6.46152">
        <ele>272</ele>
        <time>2011-06-29T01:07:19Z</time>
      </trkpt>
      <trkpt lat="48.49113" lon="6.46342">
        <ele>274</ele>
        <time>2011-06-29T01:07:45Z</time>
      </trkpt>
      <trkpt lat="48.49156" lon="6.46439">
        <ele>274</ele>
        <time>2011-06-29T01:07:56Z</time>
      </trkpt>
      <trkpt lat="48.49241" lon="6.46841">
        <ele>275</ele>
        <time>2011-06-29T01:08:36Z</time>
      </trkpt>
      <trkpt lat="48.49323" lon="6.47441">
        <ele>274</ele>
        <time>2011-06-29T01:09:31Z</time>
      </trkpt>
      <trkpt lat="48.49351" lon="6.47603">
        <ele>274</ele>
        <time>2011-06-29T01:09:45Z</time>
      </trkpt>
      <trkpt lat="48.49366" lon="6.47642">
        <ele>273</ele>
        <time>2011-06-29T01:09:49Z</time>
      </trkpt>
      <trkpt lat="48.49422" lon="6.47746">
        <ele>273</ele>
        <time>2011-06-29T01:10:01Z</time>
      </trkpt>
      <trkpt lat="48.49571" lon="6.47987">
        <ele>262</ele>
        <time>2011-06-29T01:10:30Z</time>
      </trkpt>
      <trkpt lat="48.49619" lon="6.48042">
        <ele>257</ele>
        <time>2011-06-29T01:10:38Z</time>
      </trkpt>
      <trkpt lat="48.49636" lon="6.48073">
        <ele>254</ele>
        <time>2011-06-29T01:10:42Z</time>
      </trkpt>
      <trkpt lat="48.49647" lon="6.48122">
        <ele>252</ele>
        <time>2011-06-29T01:10:47Z</time>
      </trkpt>
      <trkpt lat="48.49672" lon="6.48291">
        <ele>250</ele>
        <time>2011-06-29T01:11:02Z</time>
      </trkpt>
      <trkpt lat="48.49698" lon="6.48611">
        <ele>251</ele>
        <time>2011-06-29T01:11:34Z</time>
      </trkpt>
      <trkpt lat="48.4971" lon="6.4864">
        <ele>250</ele>
        <time>2011-06-29T01:11:37Z</time>
      </trkpt>
      <trkpt lat="48.49787" lon="6.48733">
        <ele>248</ele>
        <time>2011-06-29T01:11:51Z</time>
      </trkpt>
      <trkpt lat="48.49827" lon="6.48791">
        <ele>247</ele>
        <time>2011-06-29T01:11:58Z</time>
      </trkpt>
      <trkpt lat="48.49906" lon="6.48933">
        <ele>247</ele>
        <time>2011-06-29T01:12:14Z</time>
      </trkpt>
      <trkpt lat="48.49961" lon="6.49063">
        <ele>245</ele>
        <time>2011-06-29T01:12:28Z</time>
      </trkpt>
      <trkpt lat="48.49968" lon="6.49095">
        <ele>244</ele>
        <time>2011-06-29T01:12:31Z</time>
      </trkpt>
      <trkpt lat="48.49978" lon="6.49192">
        <ele>243</ele>
        <time>2011-06-29T01:12:40Z</time>
      </trkpt>
      <trkpt lat="48.50026" lon="6.49411">
        <ele>242</ele>
        <time>2011-06-29T01:13:00Z</time>
      </trkpt>
      <trkpt lat="48.50037" lon="6.49524">
        <ele>238</ele>
        <time>2011-06-29T01:13:10Z</time>
      </trkpt>
      <trkpt lat="48.50062" lon="6.49616">
        <ele>236</ele>
        <time>2011-06-29T01:13:19Z</time>
      </trkpt>
      <trkpt lat="48.50068" lon="6.49658">
        <ele>235</ele>
        <time>2011-06-29T01:13:23Z</time>
      </trkpt>
      <trkpt lat="48.50063" lon="6.49734">
        <ele>235</ele>
        <time>2011-06-29T01:13:30Z</time>
      </trkpt>
      <trkpt lat="48.50016" lon="6.50075">
        <ele>235</ele>
        <time>2011-06-29T01:14:00Z</time>
      </trkpt>
      <trkpt lat="48.50011" lon="6.50098">
        <ele>235</ele>
        <time>2011-06-29T01:14:05Z</time>
      </trkpt>
      <trkpt lat="48.50001" lon="6.50119">
        <ele>235</ele>
        <time>2011-06-29T01:14:09Z</time>
      </trkpt>
      <trkpt lat="48.49988" lon="6.50136">
        <ele>236</ele>
        <time>2011-06-29T01:14:13Z</time>
      </trkpt>
      <trkpt lat="48.49972" lon="6.5014">
        <ele>236</ele>
        <time>2011-06-29T01:14:17Z</time>
      </trkpt>
      <trkpt lat="48.49912" lon="6.50095">
        <ele>239</ele>
        <time>2011-06-29T01:14:34Z</time>
      </trkpt>
      <trkpt lat="48.49818" lon="6.50046">
        <ele>239</ele>
        <time>2011-06-29T01:14:48Z</time>
      </trkpt>
      <trkpt lat="48.49786" lon="6.50036">
        <ele>239</ele>
        <time>2011-06-29T01:14:52Z</time>
      </trkpt>
      <trkpt lat="48.49769" lon="6.50046">
        <ele>239</ele>
        <time>2011-06-29T01:14:54Z</time>
      </trkpt>
      <trkpt lat="48.49709" lon="6.50123">
        <ele>239</ele>
        <time>2011-06-29T01:15:05Z</time>
      </trkpt>
      <trkpt lat="48.49666" lon="6.50197">
        <ele>242</ele>
        <time>2011-06-29T01:15:26Z</time>
      </trkpt>
      <trkpt lat="48.49633" lon="6.50267">
        <ele>245</ele>
        <time>2011-06-29T01:15:45Z</time>
      </trkpt>
      <trkpt lat="48.49615" lon="6.5031">
        <ele>245</ele>
        <time>2011-06-29T01:15:52Z</time>
      </trkpt>
      <trkpt lat="48.49573" lon="6.50486">
        <ele>248</ele>
        <time>2011-06-29T01:16:18Z</time>
      </trkpt>
      <trkpt lat="48.49531" lon="6.50562">
        <ele>246</ele>
        <time>2011-06-29T01:16:27Z</time>
      </trkpt>
      <trkpt lat="48.49497" lon="6.5064">
        <ele>245</ele>
        <time>2011-06-29T01:16:35Z</time>
      </trkpt>
      <trkpt lat="48.49435" lon="6.50757">
        <ele>247</ele>
        <time>2011-06-29T01:16:57Z</time>
      </trkpt>
      <trkpt lat="48.49435" lon="6.50757">
        <ele>247</ele>
        <time>2011-06-29T01:16:58Z</time>
      </trkpt>
      <trkpt lat="48.49404" lon="6.5081">
        <ele>248</ele>
        <time>2011-06-29T01:17:11Z</time>
      </trkpt>
      <trkpt lat="48.49371" lon="6.50892">
        <ele>251</ele>
        <time>2011-06-29T01:17:28Z</time>
      </trkpt>
      <trkpt lat="48.49406" lon="6.50932">
        <ele>249</ele>
        <time>2011-06-29T01:17:34Z</time>
      </trkpt>
      <trkpt lat="48.49503" lon="6.51023">
        <ele>246</ele>
        <time>2011-06-29T01:17:49Z</time>
      </trkpt>
      <trkpt lat="48.49569" lon="6.51038">
        <ele>242</ele>
        <time>2011-06-29T01:17:58Z</time>
      </trkpt>
      <trkpt lat="48.49633" lon="6.50906">
        <ele>238</ele>
        <time>2011-06-29T01:18:13Z</time>
      </trkpt>
      <trkpt lat="48.49645" lon="6.50905">
        <ele>237</ele>
        <time>2011-06-29T01:18:14Z</time>
      </trkpt>
      <trkpt lat="48.49659" lon="6.50916">
        <ele>237</ele>
        <time>2011-06-29T01:18:17Z</time>
      </trkpt>
      <trkpt lat="48.49665" lon="6.50928">
        <ele>236</ele>
        <time>2011-06-29T01:18:18Z</time>
      </trkpt>
      <trkpt lat="48.49668" lon="6.50947">
        <ele>236</ele>
        <time>2011-06-29T01:18:20Z</time>
      </trkpt>
      <trkpt lat="48.49658" lon="6.50986">
        <ele>235</ele>
        <time>2011-06-29T01:18:23Z</time>
      </trkpt>
      <trkpt lat="48.49774" lon="6.51118">
        <ele>232</ele>
        <time>2011-06-29T01:18:43Z</time>
      </trkpt>
      <trkpt lat="48.49789" lon="6.51144">
        <ele>233</ele>
        <time>2011-06-29T01:18:52Z</time>
      </trkpt>
      <trkpt lat="48.49788" lon="6.51153">
        <ele>233</ele>
        <time>2011-06-29T01:18:54Z</time>
      </trkpt>
      <trkpt lat="48.49806" lon="6.51159">
        <ele>235</ele>
        <time>2011-06-29T01:19:02Z</time>
      </trkpt>
      <trkpt lat="48.49828" lon="6.51186">
        <ele>236</ele>
        <time>2011-06-29T01:19:13Z</time>
      </trkpt>
      <trkpt lat="48.49876" lon="6.51276">
        <ele>242</ele>
        <time>2011-06-29T01:19:43Z</time>
      </trkpt>
      <trkpt lat="48.49901" lon="6.51294">
        <ele>243</ele>
        <time>2011-06-29T01:19:53Z</time>
      </trkpt>
      <trkpt lat="48.49919" lon="6.513">
        <ele>244</ele>
        <time>2011-06-29T01:19:59Z</time>
      </trkpt>
      <trkpt lat="48.49947" lon="6.513">
        <ele>245</ele>
        <time>2011-06-29T01:20:08Z</time>
      </trkpt>
      <trkpt lat="48.49969" lon="6.51291">
        <ele>247</ele>
        <time>2011-06-29T01:20:16Z</time>
      </trkpt>
      <trkpt lat="48.50036" lon="6.51359">
        <ele>252</ele>
        <time>2011-06-29T01:20:50Z</time>
      </trkpt>
      <trkpt lat="48.50057" lon="6.51389">
        <ele>255</ele>
        <time>2011-06-29T01:21:03Z</time>
      </trkpt>
      <trkpt lat="48.50082" lon="6.51437">
        <ele>256</ele>
        <time>2011-06-29T01:21:13Z</time>
      </trkpt>
      <trkpt lat="48.50106" lon="6.51506">
        <ele>258</ele>
        <time>2011-06-29T01:21:27Z</time>
      </trkpt>
      <trkpt lat="48.50131" lon="6.51602">
        <ele>259</ele>
        <time>2011-06-29T01:21:42Z</time>
      </trkpt>
      <trkpt lat="48.50181" lon="6.51747">
        <ele>262</ele>
        <time>2011-06-29T01:22:07Z</time>
      </trkpt>
      <trkpt lat="48.50208" lon="6.51862">
        <ele>260</ele>
        <time>2011-06-29T01:22:17Z</time>
      </trkpt>
      <trkpt lat="48.5023" lon="6.51928">
        <ele>259</ele>
        <time>2011-06-29T01:22:24Z</time>
      </trkpt>
      <trkpt lat="48.50457" lon="6.52226">
        <ele>256</ele>
        <time>2011-06-29T01:23:04Z</time>
      </trkpt>
      <trkpt lat="48.50535" lon="6.52355">
        <ele>255</ele>
        <time>2011-06-29T01:23:20Z</time>
      </trkpt>
      <trkpt lat="48.50588" lon="6.52414">
        <ele>255</ele>
        <time>2011-06-29T01:23:31Z</time>
      </trkpt>
      <trkpt lat="48.5063" lon="6.52472">
        <ele>256</ele>
        <time>2011-06-29T01:23:40Z</time>
      </trkpt>
      <trkpt lat="48.50647" lon="6.5248">
        <ele>256</ele>
        <time>2011-06-29T01:23:43Z</time>
      </trkpt>
      <trkpt lat="48.50666" lon="6.52471">
        <ele>256</ele>
        <time>2011-06-29T01:23:46Z</time>
      </trkpt>
      <trkpt lat="48.50773" lon="6.52314">
        <ele>257</ele>
        <time>2011-06-29T01:24:09Z</time>
      </trkpt>
      <trkpt lat="48.5083" lon="6.52247">
        <ele>255</ele>
        <time>2011-06-29T01:24:19Z</time>
      </trkpt>
      <trkpt lat="48.50842" lon="6.52238">
        <ele>254</ele>
        <time>2011-06-29T01:24:20Z</time>
      </trkpt>
      <trkpt lat="48.50868" lon="6.52224">
        <ele>254</ele>
        <time>2011-06-29T01:24:24Z</time>
      </trkpt>
      <trkpt lat="48.50916" lon="6.52212">
        <ele>256</ele>
        <time>2011-06-29T01:24:41Z</time>
      </trkpt>
      <trkpt lat="48.5094" lon="6.52214">
        <ele>257</ele>
        <time>2011-06-29T01:24:50Z</time>
      </trkpt>
      <trkpt lat="48.50975" lon="6.52229">
        <ele>260</ele>
        <time>2011-06-29T01:25:03Z</time>
      </trkpt>
      <trkpt lat="48.51054" lon="6.52305">
        <ele>265</ele>
        <time>2011-06-29T01:25:35Z</time>
      </trkpt>
      <trkpt lat="48.5113" lon="6.52399">
        <ele>268</ele>
        <time>2011-06-29T01:26:00Z</time>
      </trkpt>
      <trkpt lat="48.5124" lon="6.52548">
        <ele>272</ele>
        <time>2011-06-29T01:26:36Z</time>
      </trkpt>
      <trkpt lat="48.51353" lon="6.52639">
        <ele>274</ele>
        <time>2011-06-29T01:27:01Z</time>
      </trkpt>
      <trkpt lat="48.51397" lon="6.52683">
        <ele>274</ele>
        <time>2011-06-29T01:27:12Z</time>
      </trkpt>
      <trkpt lat="48.51628" lon="6.52984">
        <ele>280</ele>
        <time>2011-06-29T01:28:13Z</time>
      </trkpt>
      <trkpt lat="48.51664" lon="6.5306">
        <ele>280</ele>
        <time>2011-06-29T01:28:21Z</time>
      </trkpt>
      <trkpt lat="48.51692" lon="6.53177">
        <ele>280</ele>
        <time>2011-06-29T01:28:32Z</time>
      </trkpt>
      <trkpt lat="48.51726" lon="6.53252">
        <ele>279</ele>
        <time>2011-06-29T01:28:40Z</time>
      </trkpt>
      <trkpt lat="48.51753" lon="6.53289">
        <ele>279</ele>
        <time>2011-06-29T01:28:45Z</time>
      </trkpt>
      <trkpt lat="48.5178" lon="6.53313">
        <ele>278</ele>
        <time>2011-06-29T01:28:49Z</time>
      </trkpt>
      <trkpt lat="48.51925" lon="6.53398">
        <ele>276</ele>
        <time>2011-06-29T01:29:10Z</time>
      </trkpt>
      <trkpt lat="48.51958" lon="6.53428">
        <ele>274</ele>
        <time>2011-06-29T01:29:15Z</time>
      </trkpt>
      <trkpt lat="48.52044" lon="6.53522">
        <ele>272</ele>
        <time>2011-06-29T01:29:29Z</time>
      </trkpt>
      <trkpt lat="48.52213" lon="6.53638">
        <ele>269</ele>
        <time>2011-06-29T01:29:54Z</time>
      </trkpt>
      <trkpt lat="48.5233" lon="6.53732">
        <ele>267</ele>
        <time>2011-06-29T01:30:12Z</time>
      </trkpt>
      <trkpt lat="48.52409" lon="6.53755">
        <ele>265</ele>
        <time>2011-06-29T01:30:23Z</time>
      </trkpt>
      <trkpt lat="48.52481" lon="6.53792">
        <ele>264</ele>
        <time>2011-06-29T01:30:33Z</time>
      </trkpt>
      <trkpt lat="48.52679" lon="6.53941">
        <ele>261</ele>
        <time>2011-06-29T01:31:02Z</time>
      </trkpt>
      <trkpt lat="48.52707" lon="6.5397">
        <ele>260</ele>
        <time>2011-06-29T01:31:07Z</time>
      </trkpt>
      <trkpt lat="48.52784" lon="6.54114">
        <ele>257</ele>
        <time>2011-06-29T01:31:23Z</time>
      </trkpt>
      <trkpt lat="48.52856" lon="6.54199">
        <ele>253</ele>
        <time>2011-06-29T01:31:36Z</time>
      </trkpt>
      <trkpt lat="48.52871" lon="6.54214">
        <ele>253</ele>
        <time>2011-06-29T01:31:39Z</time>
      </trkpt>
      <trkpt lat="48.52939" lon="6.54259">
        <ele>254</ele>
        <time>2011-06-29T01:31:52Z</time>
      </trkpt>
      <trkpt lat="48.53023" lon="6.54354">
        <ele>260</ele>
        <time>2011-06-29T01:32:30Z</time>
      </trkpt>
      <trkpt lat="48.5313" lon="6.54434">
        <ele>264</ele>
        <time>2011-06-29T01:33:02Z</time>
      </trkpt>
      <trkpt lat="48.53166" lon="6.54484">
        <ele>264</ele>
        <time>2011-06-29T01:33:12Z</time>
      </trkpt>
      <trkpt lat="48.53178" lon="6.54515">
        <ele>265</ele>
        <time>2011-06-29T01:33:17Z</time>
      </trkpt>
      <trkpt lat="48.53272" lon="6.54998">
        <ele>271</ele>
        <time>2011-06-29T01:34:24Z</time>
      </trkpt>
      <trkpt lat="48.53291" lon="6.55056">
        <ele>266</ele>
        <time>2011-06-29T01:34:30Z</time>
      </trkpt>
      <trkpt lat="48.53319" lon="6.55091">
        <ele>262</ele>
        <time>2011-06-29T01:34:35Z</time>
      </trkpt>
      <trkpt lat="48.53415" lon="6.55154">
        <ele>252</ele>
        <time>2011-06-29T01:34:49Z</time>
      </trkpt>
      <trkpt lat="48.53461" lon="6.55171">
        <ele>245</ele>
        <time>2011-06-29T01:34:55Z</time>
      </trkpt>
      <trkpt lat="48.53502" lon="6.55194">
        <ele>240</ele>
        <time>2011-06-29T01:35:01Z</time>
      </trkpt>
      <trkpt lat="48.54312" lon="6.55716">
        <ele>233</ele>
        <time>2011-06-29T01:36:58Z</time>
      </trkpt>
      <trkpt lat="48.54336" lon="6.55741">
        <ele>232</ele>
        <time>2011-06-29T01:37:02Z</time>
      </trkpt>
      <trkpt lat="48.54344" lon="6.55758">
        <ele>232</ele>
        <time>2011-06-29T01:37:04Z</time>
      </trkpt>
      <trkpt lat="48.54398" lon="6.55915">
        <ele>231</ele>
        <time>2011-06-29T01:37:20Z</time>
      </trkpt>
      <trkpt lat="48.54418" lon="6.55956">
        <ele>231</ele>
        <time>2011-06-29T01:37:24Z</time>
      </trkpt>
      <trkpt lat="48.54564" lon="6.56135">
        <ele>231</ele>
        <time>2011-06-29T01:37:49Z</time>
      </trkpt>
      <trkpt lat="48.54597" lon="6.56159">
        <ele>231</ele>
        <time>2011-06-29T01:37:54Z</time>
      </trkpt>
      <trkpt lat="48.54631" lon="6.56165">
        <ele>231</ele>
        <time>2011-06-29T01:37:59Z</time>
      </trkpt>
      <trkpt lat="48.54653" lon="6.5616">
        <ele>231</ele>
        <time>2011-06-29T01:38:02Z</time>
      </trkpt>
      <trkpt lat="48.54671" lon="6.56151">
        <ele>231</ele>
        <time>2011-06-29T01:38:05Z</time>
      </trkpt>
      <trkpt lat="48.54699" lon="6.56122">
        <ele>231</ele>
        <time>2011-06-29T01:38:10Z</time>
      </trkpt>
      <trkpt lat="48.54717" lon="6.56092">
        <ele>231</ele>
        <time>2011-06-29T01:38:14Z</time>
      </trkpt>
      <trkpt lat="48.54777" lon="6.55923">
        <ele>232</ele>
        <time>2011-06-29T01:38:34Z</time>
      </trkpt>
      <trkpt lat="48.54809" lon="6.55874">
        <ele>232</ele>
        <time>2011-06-29T01:38:40Z</time>
      </trkpt>
      <trkpt lat="48.54842" lon="6.55852">
        <ele>232</ele>
        <time>2011-06-29T01:38:44Z</time>
      </trkpt>
      <trkpt lat="48.54872" lon="6.55846">
        <ele>232</ele>
        <time>2011-06-29T01:38:48Z</time>
      </trkpt>
      <trkpt lat="48.54902" lon="6.55854">
        <ele>231</ele>
        <time>2011-06-29T01:38:53Z</time>
      </trkpt>
      <trkpt lat="48.55059" lon="6.55955">
        <ele>231</ele>
        <time>2011-06-29T01:39:15Z</time>
      </trkpt>
      <trkpt lat="48.551" lon="6.55967">
        <ele>230</ele>
        <time>2011-06-29T01:39:21Z</time>
      </trkpt>
      <trkpt lat="48.55132" lon="6.5596">
        <ele>230</ele>
        <time>2011-06-29T01:39:25Z</time>
      </trkpt>
      <trkpt lat="48.55204" lon="6.55901">
        <ele>230</ele>
        <time>2011-06-29T01:39:36Z</time>
      </trkpt>
      <trkpt lat="48.55235" lon="6.55887">
        <ele>230</ele>
        <time>2011-06-29T01:39:42Z</time>
      </trkpt>
      <trkpt lat="48.55256" lon="6.55888">
        <ele>230</ele>
        <time>2011-06-29T01:39:45Z</time>
      </trkpt>
      <trkpt lat="48.55267" lon="6.55876">
        <ele>230</ele>
        <time>2011-06-29T01:39:48Z</time>
      </trkpt>
      <trkpt lat="48.55288" lon="6.55866">
        <ele>230</ele>
        <time>2011-06-29T01:39:52Z</time>
      </trkpt>
      <trkpt lat="48.55299" lon="6.55871">
        <ele>231</ele>
        <time>2011-06-29T01:39:54Z</time>
      </trkpt>
      <trkpt lat="48.55306" lon="6.5588">
        <ele>230</ele>
        <time>2011-06-29T01:39:55Z</time>
      </trkpt>
      <trkpt lat="48.55319" lon="6.55932">
        <ele>230</ele>
        <time>2011-06-29T01:40:00Z</time>
      </trkpt>
      <trkpt lat="48.55327" lon="6.55948">
        <ele>230</ele>
        <time>2011-06-29T01:40:01Z</time>
      </trkpt>
      <trkpt lat="48.55338" lon="6.5595">
        <ele>230</ele>
        <time>2011-06-29T01:40:03Z</time>
      </trkpt>
      <trkpt lat="48.55352" lon="6.55942">
        <ele>230</ele>
        <time>2011-06-29T01:40:05Z</time>
      </trkpt>
      <trkpt lat="48.5539" lon="6.55859">
        <ele>230</ele>
        <time>2011-06-29T01:40:14Z</time>
      </trkpt>
      <trkpt lat="48.5539" lon="6.55859">
        <ele>230</ele>
        <time>2011-06-29T01:40:15Z</time>
      </trkpt>
      <trkpt lat="48.56272" lon="6.54652">
        <ele>231</ele>
        <time>2011-06-29T01:42:58Z</time>
      </trkpt>
      <trkpt lat="48.56332" lon="6.54577">
        <ele>230</ele>
        <time>2011-06-29T01:43:08Z</time>
      </trkpt>
      <trkpt lat="48.56371" lon="6.54506">
        <ele>230</ele>
        <time>2011-06-29T01:43:16Z</time>
      </trkpt>
      <trkpt lat="48.56795" lon="6.53925">
        <ele>234</ele>
        <time>2011-06-29T01:44:49Z</time>
      </trkpt>
      <trkpt lat="48.56945" lon="6.53726">
        <ele>233</ele>
        <time>2011-06-29T01:45:16Z</time>
      </trkpt>
      <trkpt lat="48.57246" lon="6.5331">
        <ele>232</ele>
        <time>2011-06-29T01:46:10Z</time>
      </trkpt>
      <trkpt lat="48.57272" lon="6.53281">
        <ele>231</ele>
        <time>2011-06-29T01:46:14Z</time>
      </trkpt>
      <trkpt lat="48.57299" lon="6.53277">
        <ele>230</ele>
        <time>2011-06-29T01:46:18Z</time>
      </trkpt>
      <trkpt lat="48.57273" lon="6.53071">
        <ele>227</ele>
        <time>2011-06-29T01:46:36Z</time>
      </trkpt>
      <trkpt lat="48.57252" lon="6.53019">
        <ele>227</ele>
        <time>2011-06-29T01:46:43Z</time>
      </trkpt>
      <trkpt lat="48.57355" lon="6.52864">
        <ele>228</ele>
        <time>2011-06-29T01:47:05Z</time>
      </trkpt>
      <trkpt lat="48.57408" lon="6.5295">
        <ele>229</ele>
        <time>2011-06-29T01:47:20Z</time>
      </trkpt>
      <trkpt lat="48.57462" lon="6.52978">
        <ele>230</ele>
        <time>2011-06-29T01:47:31Z</time>
      </trkpt>
      <trkpt lat="48.57499" lon="6.53002">
        <ele>231</ele>
        <time>2011-06-29T01:47:41Z</time>
      </trkpt>
      <trkpt lat="48.57519" lon="6.53021">
        <ele>231</ele>
        <time>2011-06-29T01:47:47Z</time>
      </trkpt>
      <trkpt lat="48.57552" lon="6.53068">
        <ele>233</ele>
        <time>2011-06-29T01:47:58Z</time>
      </trkpt>
      <trkpt lat="48.57718" lon="6.53419">
        <ele>235</ele>
        <time>2011-06-29T01:48:44Z</time>
      </trkpt>
      <trkpt lat="48.57718" lon="6.53419">
        <ele>235</ele>
        <time>2011-06-29T01:48:45Z</time>
      </trkpt>
      <trkpt lat="48.5773" lon="6.5345">
        <ele>235</ele>
        <time>2011-06-29T01:48:49Z</time>
      </trkpt>
      <trkpt lat="48.57776" lon="6.53625">
        <ele>236</ele>
        <time>2011-06-29T01:49:09Z</time>
      </trkpt>
      <trkpt lat="48.578" lon="6.53693">
        <ele>236</ele>
        <time>2011-06-29T01:49:16Z</time>
      </trkpt>
      <trkpt lat="48.57817" lon="6.53717">
        <ele>236</ele>
        <time>2011-06-29T01:49:19Z</time>
      </trkpt>
      <trkpt lat="48.57838" lon="6.53722">
        <ele>236</ele>
        <time>2011-06-29T01:49:22Z</time>
      </trkpt>
      <trkpt lat="48.57897" lon="6.53695">
        <ele>236</ele>
        <time>2011-06-29T01:49:30Z</time>
      </trkpt>
      <trkpt lat="48.57925" lon="6.53692">
        <ele>236</ele>
        <time>2011-06-29T01:49:34Z</time>
      </trkpt>
      <trkpt lat="48.57969" lon="6.53716">
        <ele>236</ele>
        <time>2011-06-29T01:49:40Z</time>
      </trkpt>
      <trkpt lat="48.58054" lon="6.53773">
        <ele>236</ele>
        <time>2011-06-29T01:49:52Z</time>
      </trkpt>
      <trkpt lat="48.58067" lon="6.53774">
        <ele>236</ele>
        <time>2011-06-29T01:49:55Z</time>
      </trkpt>
      <trkpt lat="48.58082" lon="6.53762">
        <ele>236</ele>
        <time>2011-06-29T01:49:58Z</time>
      </trkpt>
      <trkpt lat="48.58122" lon="6.53682">
        <ele>237</ele>
        <time>2011-06-29T01:50:09Z</time>
      </trkpt>
      <trkpt lat="48.58134" lon="6.53673">
        <ele>237</ele>
        <time>2011-06-29T01:50:11Z</time>
      </trkpt>
      <trkpt lat="48.58148" lon="6.53683">
        <ele>237</ele>
        <time>2011-06-29T01:50:13Z</time>
      </trkpt>
      <trkpt lat="48.58228" lon="6.53795">
        <ele>237</ele>
        <time>2011-06-29T01:50:28Z</time>
      </trkpt>
      <trkpt lat="48.58289" lon="6.53846">
        <ele>237</ele>
        <time>2011-06-29T01:50:40Z</time>
      </trkpt>
      <trkpt lat="48.58316" lon="6.5386">
        <ele>238</ele>
        <time>2011-06-29T01:50:45Z</time>
      </trkpt>
      <trkpt lat="48.58332" lon="6.53862">
        <ele>238</ele>
        <time>2011-06-29T01:50:47Z</time>
      </trkpt>
      <trkpt lat="48.5835" lon="6.53853">
        <ele>238</ele>
        <time>2011-06-29T01:50:49Z</time>
      </trkpt>
      <trkpt lat="48.58409" lon="6.53798">
        <ele>238</ele>
        <time>2011-06-29T01:50:59Z</time>
      </trkpt>
      <trkpt lat="48.58605" lon="6.53544">
        <ele>238</ele>
        <time>2011-06-29T01:51:33Z</time>
      </trkpt>
      <trkpt lat="48.58698" lon="6.53474">
        <ele>238</ele>
        <time>2011-06-29T01:51:47Z</time>
      </trkpt>
      <trkpt lat="48.58766" lon="6.5343">
        <ele>238</ele>
        <time>2011-06-29T01:52:00Z</time>
      </trkpt>
      <trkpt lat="48.58797" lon="6.53403">
        <ele>239</ele>
        <time>2011-06-29T01:52:06Z</time>
      </trkpt>
      <trkpt lat="48.58811" lon="6.53398">
        <ele>239</ele>
        <time>2011-06-29T01:52:08Z</time>
      </trkpt>
      <trkpt lat="48.58851" lon="6.53395">
        <ele>239</ele>
        <time>2011-06-29T01:52:14Z</time>
      </trkpt>
      <trkpt lat="48.5893" lon="6.53328">
        <ele>240</ele>
        <time>2011-06-29T01:52:29Z</time>
      </trkpt>
      <trkpt lat="48.58953" lon="6.53319">
        <ele>239</ele>
        <time>2011-06-29T01:52:32Z</time>
      </trkpt>
      <trkpt lat="48.58989" lon="6.53318">
        <ele>239</ele>
        <time>2011-06-29T01:52:37Z</time>
      </trkpt>
      <trkpt lat="48.59055" lon="6.53338">
        <ele>238</ele>
        <time>2011-06-29T01:52:46Z</time>
      </trkpt>
      <trkpt lat="48.59125" lon="6.53318">
        <ele>238</ele>
        <time>2011-06-29T01:52:56Z</time>
      </trkpt>
      <trkpt lat="48.5914" lon="6.52974">
        <ele>238</ele>
        <time>2011-06-29T01:53:26Z</time>
      </trkpt>
      <trkpt lat="48.5914" lon="6.52974">
        <ele>238</ele>
        <time>2011-06-29T01:53:27Z</time>
      </trkpt>
      <trkpt lat="48.59155" lon="6.52756">
        <ele>238</ele>
        <time>2011-06-29T01:53:46Z</time>
      </trkpt>
      <trkpt lat="48.59154" lon="6.527">
        <ele>237</ele>
        <time>2011-06-29T01:53:51Z</time>
      </trkpt>
      <trkpt lat="48.59183" lon="6.52124">
        <ele>237</ele>
        <time>2011-06-29T01:54:42Z</time>
      </trkpt>
      <trkpt lat="48.59185" lon="6.52005">
        <ele>235</ele>
        <time>2011-06-29T01:54:53Z</time>
      </trkpt>
      <trkpt lat="48.59193" lon="6.51919">
        <ele>235</ele>
        <time>2011-06-29T01:55:01Z</time>
      </trkpt>
      <trkpt lat="48.59214" lon="6.51335">
        <ele>235</ele>
        <time>2011-06-29T01:55:52Z</time>
      </trkpt>
      <trkpt lat="48.59217" lon="6.51071">
        <ele>235</ele>
        <time>2011-06-29T01:56:16Z</time>
      </trkpt>
      <trkpt lat="48.59221" lon="6.51029">
        <ele>234</ele>
        <time>2011-06-29T01:56:19Z</time>
      </trkpt>
      <trkpt lat="48.59228" lon="6.51021">
        <ele>234</ele>
        <time>2011-06-29T01:56:20Z</time>
      </trkpt>
      <trkpt lat="48.59229" lon="6.51006">
        <ele>234</ele>
        <time>2011-06-29T01:56:22Z</time>
      </trkpt>
      <trkpt lat="48.59222" lon="6.50997">
        <ele>234</ele>
        <time>2011-06-29T01:56:23Z</time>
      </trkpt>
      <trkpt lat="48.59212" lon="6.51">
        <ele>234</ele>
        <time>2011-06-29T01:56:24Z</time>
      </trkpt>
      <trkpt lat="48.59203" lon="6.50976">
        <ele>234</ele>
        <time>2011-06-29T01:56:27Z</time>
      </trkpt>
      <trkpt lat="48.59133" lon="6.50503">
        <ele>234</ele>
        <time>2011-06-29T01:57:10Z</time>
      </trkpt>
      <trkpt lat="48.5912" lon="6.50385">
        <ele>234</ele>
        <time>2011-06-29T01:57:24Z</time>
      </trkpt>
      <trkpt lat="48.59115" lon="6.50366">
        <ele>235</ele>
        <time>2011-06-29T01:57:26Z</time>
      </trkpt>
      <trkpt lat="48.59006" lon="6.49604">
        <ele>233</ele>
        <time>2011-06-29T01:58:35Z</time>
      </trkpt>
      <trkpt lat="48.58951" lon="6.49253">
        <ele>232</ele>
        <time>2011-06-29T01:59:07Z</time>
      </trkpt>
      <trkpt lat="48.59032" lon="6.49217">
        <ele>232</ele>
        <time>2011-06-29T01:59:21Z</time>
      </trkpt>
      <trkpt lat="48.5907" lon="6.49192">
        <ele>233</ele>
        <time>2011-06-29T01:59:28Z</time>
      </trkpt>
      <trkpt lat="48.59073" lon="6.49173">
        <ele>232</ele>
        <time>2011-06-29T01:59:29Z</time>
      </trkpt>
      <trkpt lat="48.59062" lon="6.49118">
        <ele>232</ele>
        <time>2011-06-29T01:59:34Z</time>
      </trkpt>
      <trkpt lat="48.59092" lon="6.49099">
        <ele>232</ele>
        <time>2011-06-29T01:59:39Z</time>
      </trkpt>
      <trkpt lat="48.59131" lon="6.49088">
        <ele>232</ele>
        <time>2011-06-29T01:59:44Z</time>
      </trkpt>
      <trkpt lat="48.592" lon="6.4905">
        <ele>231</ele>
        <time>2011-06-29T01:59:54Z</time>
      </trkpt>
      <trkpt lat="48.59273" lon="6.49041">
        <ele>231</ele>
        <time>2011-06-29T02:00:04Z</time>
      </trkpt>
      <trkpt lat="48.59302" lon="6.49031">
        <ele>229</ele>
        <time>2011-06-29T02:00:08Z</time>
      </trkpt>
      <trkpt lat="48.59412" lon="6.48972">
        <ele>225</ele>
        <time>2011-06-29T02:00:23Z</time>
      </trkpt>
      <trkpt lat="48.59503" lon="6.48976">
        <ele>223</ele>
        <time>2011-06-29T02:00:35Z</time>
      </trkpt>
      <trkpt lat="48.59523" lon="6.48976">
        <ele>223</ele>
        <time>2011-06-29T02:00:38Z</time>
      </trkpt>
      <trkpt lat="48.59754" lon="6.48912">
        <ele>224</ele>
        <time>2011-06-29T02:01:13Z</time>
      </trkpt>
      <trkpt lat="48.59763" lon="6.48925">
        <ele>224</ele>
        <time>2011-06-29T02:01:15Z</time>
      </trkpt>
      <trkpt lat="48.59772" lon="6.48919">
        <ele>224</ele>
        <time>2011-06-29T02:01:17Z</time>
      </trkpt>
      <trkpt lat="48.59791" lon="6.48932">
        <ele>224</ele>
        <time>2011-06-29T02:01:21Z</time>
      </trkpt>
      <trkpt lat="48.59861" lon="6.48915">
        <ele>225</ele>
        <time>2011-06-29T02:01:33Z</time>
      </trkpt>
      <trkpt lat="48.59874" lon="6.48916">
        <ele>225</ele>
        <time>2011-06-29T02:01:35Z</time>
      </trkpt>
      <trkpt lat="48.60169" lon="6.48994">
        <ele>227</ele>
        <time>2011-06-29T02:02:22Z</time>
      </trkpt>
      <trkpt lat="48.602" lon="6.48994">
        <ele>227</ele>
        <time>2011-06-29T02:02:30Z</time>
      </trkpt>
      <trkpt lat="48.60226" lon="6.48983">
        <ele>228</ele>
        <time>2011-06-29T02:02:37Z</time>
      </trkpt>
      <trkpt lat="48.60247" lon="6.48966">
        <ele>229</ele>
        <time>2011-06-29T02:02:43Z</time>
      </trkpt>
      <trkpt lat="48.60283" lon="6.48916">
        <ele>231</ele>
        <time>2011-06-29T02:02:56Z</time>
      </trkpt>
      <trkpt lat="48.60316" lon="6.48849">
        <ele>234</ele>
        <time>2011-06-29T02:03:16Z</time>
      </trkpt>
      <trkpt lat="48.60353" lon="6.48799">
        <ele>237</ele>
        <time>2011-06-29T02:03:34Z</time>
      </trkpt>
      <trkpt lat="48.60403" lon="6.48765">
        <ele>239</ele>
        <time>2011-06-29T02:03:50Z</time>
      </trkpt>
      <trkpt lat="48.60468" lon="6.4875">
        <ele>242</ele>
        <time>2011-06-29T02:04:10Z</time>
      </trkpt>
      <trkpt lat="48.6051" lon="6.48727">
        <ele>244</ele>
        <time>2011-06-29T02:04:28Z</time>
      </trkpt>
      <trkpt lat="48.60545" lon="6.48691">
        <ele>247</ele>
        <time>2011-06-29T02:04:44Z</time>
      </trkpt>
      <trkpt lat="48.60579" lon="6.48633">
        <ele>251</ele>
        <time>2011-06-29T02:05:04Z</time>
      </trkpt>
      <trkpt lat="48.60593" lon="6.48616">
        <ele>251</ele>
        <time>2011-06-29T02:05:10Z</time>
      </trkpt>
      <trkpt lat="48.60623" lon="6.486">
        <ele>253</ele>
        <time>2011-06-29T02:05:21Z</time>
      </trkpt>
      <trkpt lat="48.60655" lon="6.48602">
        <ele>255</ele>
        <time>2011-06-29T02:05:31Z</time>
      </trkpt>
      <trkpt lat="48.60674" lon="6.48613">
        <ele>256</ele>
        <time>2011-06-29T02:05:38Z</time>
      </trkpt>
      <trkpt lat="48.607" lon="6.48645">
        <ele>256</ele>
        <time>2011-06-29T02:05:44Z</time>
      </trkpt>
      <trkpt lat="48.61019" lon="6.49163">
        <ele>260</ele>
        <time>2011-06-29T02:07:01Z</time>
      </trkpt>
      <trkpt lat="48.61043" lon="6.49186">
        <ele>260</ele>
        <time>2011-06-29T02:07:08Z</time>
      </trkpt>
      <trkpt lat="48.61073" lon="6.49198">
        <ele>261</ele>
        <time>2011-06-29T02:07:16Z</time>
      </trkpt>
      <trkpt lat="48.61115" lon="6.49187">
        <ele>263</ele>
        <time>2011-06-29T02:07:27Z</time>
      </trkpt>
      <trkpt lat="48.61146" lon="6.49157">
        <ele>263</ele>
        <time>2011-06-29T02:07:33Z</time>
      </trkpt>
      <trkpt lat="48.6116" lon="6.49129">
        <ele>263</ele>
        <time>2011-06-29T02:07:36Z</time>
      </trkpt>
      <trkpt lat="48.61192" lon="6.48984">
        <ele>264</ele>
        <time>2011-06-29T02:07:52Z</time>
      </trkpt>
      <trkpt lat="48.61211" lon="6.48932">
        <ele>266</ele>
        <time>2011-06-29T02:08:08Z</time>
      </trkpt>
      <trkpt lat="48.61246" lon="6.48869">
        <ele>270</ele>
        <time>2011-06-29T02:08:29Z</time>
      </trkpt>
      <trkpt lat="48.61293" lon="6.48814">
        <ele>270</ele>
        <time>2011-06-29T02:08:37Z</time>
      </trkpt>
      <trkpt lat="48.61316" lon="6.48796">
        <ele>270</ele>
        <time>2011-06-29T02:08:40Z</time>
      </trkpt>
      <trkpt lat="48.61375" lon="6.48768">
        <ele>270</ele>
        <time>2011-06-29T02:08:48Z</time>
      </trkpt>
      <trkpt lat="48.62035" lon="6.48685">
        <ele>270</ele>
        <time>2011-06-29T02:10:17Z</time>
      </trkpt>
      <trkpt lat="48.62092" lon="6.48683">
        <ele>269</ele>
        <time>2011-06-29T02:10:24Z</time>
      </trkpt>
      <trkpt lat="48.6218" lon="6.48694">
        <ele>269</ele>
        <time>2011-06-29T02:10:36Z</time>
      </trkpt>
      <trkpt lat="48.62245" lon="6.48712">
        <ele>266</ele>
        <time>2011-06-29T02:10:45Z</time>
      </trkpt>
      <trkpt lat="48.62293" lon="6.48732">
        <ele>264</ele>
        <time>2011-06-29T02:10:52Z</time>
      </trkpt>
      <trkpt lat="48.62842" lon="6.4901">
        <ele>254</ele>
        <time>2011-06-29T02:12:09Z</time>
      </trkpt>
      <trkpt lat="48.6288" lon="6.4902">
        <ele>255</ele>
        <time>2011-06-29T02:12:20Z</time>
      </trkpt>
      <trkpt lat="48.62906" lon="6.4902">
        <ele>256</ele>
        <time>2011-06-29T02:12:28Z</time>
      </trkpt>
      <trkpt lat="48.62964" lon="6.49005">
        <ele>259</ele>
        <time>2011-06-29T02:12:46Z</time>
      </trkpt>
      <trkpt lat="48.62982" lon="6.48996">
        <ele>259</ele>
        <time>2011-06-29T02:12:49Z</time>
      </trkpt>
      <trkpt lat="48.63024" lon="6.48963">
        <ele>259</ele>
        <time>2011-06-29T02:12:57Z</time>
      </trkpt>
      <trkpt lat="48.63059" lon="6.48922">
        <ele>260</ele>
        <time>2011-06-29T02:13:04Z</time>
      </trkpt>
      <trkpt lat="48.63137" lon="6.488">
        <ele>259</ele>
        <time>2011-06-29T02:13:19Z</time>
      </trkpt>
      <trkpt lat="48.63235" lon="6.48657">
        <ele>259</ele>
        <time>2011-06-29T02:13:38Z</time>
      </trkpt>
      <trkpt lat="48.63256" lon="6.48632">
        <ele>259</ele>
        <time>2011-06-29T02:13:44Z</time>
      </trkpt>
      <trkpt lat="48.6329" lon="6.48602">
        <ele>261</ele>
        <time>2011-06-29T02:13:54Z</time>
      </trkpt>
      <trkpt lat="48.6329" lon="6.48602">
        <ele>261</ele>
        <time>2011-06-29T02:13:55Z</time>
      </trkpt>
      <trkpt lat="48.63344" lon="6.48573">
        <ele>262</ele>
        <time>2011-06-29T02:14:08Z</time>
      </trkpt>
      <trkpt lat="48.6338" lon="6.48562">
        <ele>263</ele>
        <time>2011-06-29T02:14:16Z</time>
      </trkpt>
      <trkpt lat="48.63753" lon="6.48475">
        <ele>258</ele>
        <time>2011-06-29T02:15:06Z</time>
      </trkpt>
      <trkpt lat="48.6405" lon="6.48375">
        <ele>249</ele>
        <time>2011-06-29T02:15:47Z</time>
      </trkpt>
      <trkpt lat="48.64107" lon="6.48361">
        <ele>246</ele>
        <time>2011-06-29T02:15:55Z</time>
      </trkpt>
      <trkpt lat="48.64914" lon="6.48248">
        <ele>217</ele>
        <time>2011-06-29T02:17:43Z</time>
      </trkpt>
      <trkpt lat="48.65051" lon="6.48197">
        <ele>215</ele>
        <time>2011-06-29T02:18:02Z</time>
      </trkpt>
      <trkpt lat="48.6515" lon="6.48143">
        <ele>215</ele>
        <time>2011-06-29T02:18:16Z</time>
      </trkpt>
      <trkpt lat="48.65201" lon="6.48125">
        <ele>215</ele>
        <time>2011-06-29T02:18:25Z</time>
      </trkpt>
      <trkpt lat="48.65259" lon="6.48122">
        <ele>216</ele>
        <time>2011-06-29T02:18:35Z</time>
      </trkpt>
      <trkpt lat="48.65321" lon="6.4814">
        <ele>216</ele>
        <time>2011-06-29T02:18:45Z</time>
      </trkpt>
      <trkpt lat="48.65344" lon="6.48154">
        <ele>216</ele>
        <time>2011-06-29T02:18:49Z</time>
      </trkpt>
      <trkpt lat="48.65393" lon="6.48197">
        <ele>217</ele>
        <time>2011-06-29T02:18:58Z</time>
      </trkpt>
      <trkpt lat="48.65444" lon="6.48252">
        <ele>218</ele>
        <time>2011-06-29T02:19:11Z</time>
      </trkpt>
      <trkpt lat="48.65529" lon="6.48299">
        <ele>220</ele>
        <time>2011-06-29T02:19:30Z</time>
      </trkpt>
      <trkpt lat="48.65534" lon="6.48306">
        <ele>220</ele>
        <time>2011-06-29T02:19:31Z</time>
      </trkpt>
      <trkpt lat="48.65539" lon="6.48335">
        <ele>220</ele>
        <time>2011-06-29T02:19:35Z</time>
      </trkpt>
      <trkpt lat="48.65541" lon="6.48419">
        <ele>220</ele>
        <time>2011-06-29T02:19:44Z</time>
      </trkpt>
      <trkpt lat="48.65548" lon="6.48495">
        <ele>221</ele>
        <time>2011-06-29T02:19:52Z</time>
      </trkpt>
      <trkpt lat="48.65543" lon="6.48516">
        <ele>221</ele>
        <time>2011-06-29T02:19:55Z</time>
      </trkpt>
      <trkpt lat="48.65509" lon="6.48567">
        <ele>222</ele>
        <time>2011-06-29T02:20:06Z</time>
      </trkpt>
      <trkpt lat="48.65506" lon="6.48591">
        <ele>222</ele>
        <time>2011-06-29T02:20:09Z</time>
      </trkpt>
      <trkpt lat="48.65541" lon="6.48763">
        <ele>225</ele>
        <time>2011-06-29T02:20:34Z</time>
      </trkpt>
      <trkpt lat="48.65581" lon="6.48931">
        <ele>226</ele>
        <time>2011-06-29T02:20:54Z</time>
      </trkpt>
      <trkpt lat="48.65589" lon="6.48943">
        <ele>226</ele>
        <time>2011-06-29T02:20:56Z</time>
      </trkpt>
      <trkpt lat="48.65609" lon="6.48956">
        <ele>226</ele>
        <time>2011-06-29T02:21:00Z</time>
      </trkpt>
      <trkpt lat="48.6565" lon="6.48963">
        <ele>226</ele>
        <time>2011-06-29T02:21:07Z</time>
      </trkpt>
      <trkpt lat="48.65693" lon="6.48962">
        <ele>227</ele>
        <time>2011-06-29T02:21:14Z</time>
      </trkpt>
      <trkpt lat="48.65712" lon="6.48969">
        <ele>227</ele>
        <time>2011-06-29T02:21:18Z</time>
      </trkpt>
      <trkpt lat="48.65727" lon="6.48984">
        <ele>227</ele>
        <time>2011-06-29T02:21:22Z</time>
      </trkpt>
      <trkpt lat="48.65789" lon="6.49099">
        <ele>230</ele>
        <time>2011-06-29T02:21:44Z</time>
      </trkpt>
      <trkpt lat="48.65803" lon="6.49116">
        <ele>230</ele>
        <time>2011-06-29T02:21:47Z</time>
      </trkpt>
      <trkpt lat="48.65829" lon="6.49142">
        <ele>230</ele>
        <time>2011-06-29T02:21:53Z</time>
      </trkpt>
      <trkpt lat="48.65876" lon="6.49165">
        <ele>231</ele>
        <time>2011-06-29T02:22:01Z</time>
      </trkpt>
      <trkpt lat="48.65966" lon="6.49188">
        <ele>232</ele>
        <time>2011-06-29T02:22:17Z</time>
      </trkpt>
      <trkpt lat="48.66008" lon="6.49185">
        <ele>233</ele>
        <time>2011-06-29T02:22:29Z</time>
      </trkpt>
      <trkpt lat="48.66029" lon="6.49177">
        <ele>234</ele>
        <time>2011-06-29T02:22:35Z</time>
      </trkpt>
      <trkpt lat="48.66068" lon="6.49149">
        <ele>236</ele>
        <time>2011-06-29T02:22:48Z</time>
      </trkpt>
      <trkpt lat="48.66173" lon="6.49034">
        <ele>239</ele>
        <time>2011-06-29T02:23:17Z</time>
      </trkpt>
      <trkpt lat="48.66193" lon="6.49016">
        <ele>239</ele>
        <time>2011-06-29T02:23:21Z</time>
      </trkpt>
      <trkpt lat="48.66218" lon="6.49002">
        <ele>239</ele>
        <time>2011-06-29T02:23:25Z</time>
      </trkpt>
      <trkpt lat="48.6629" lon="6.48999">
        <ele>240</ele>
        <time>2011-06-29T02:23:37Z</time>
      </trkpt>
      <trkpt lat="48.66717" lon="6.49017">
        <ele>251</ele>
        <time>2011-06-29T02:25:18Z</time>
      </trkpt>
      <trkpt lat="48.66741" lon="6.49011">
        <ele>251</ele>
        <time>2011-06-29T02:25:25Z</time>
      </trkpt>
      <trkpt lat="48.66778" lon="6.48985">
        <ele>253</ele>
        <time>2011-06-29T02:25:35Z</time>
      </trkpt>
      <trkpt lat="48.66798" lon="6.48958">
        <ele>254</ele>
        <time>2011-06-29T02:25:43Z</time>
      </trkpt>
      <trkpt lat="48.66863" lon="6.48797">
        <ele>261</ele>
        <time>2011-06-29T02:26:27Z</time>
      </trkpt>
      <trkpt lat="48.66892" lon="6.48761">
        <ele>260</ele>
        <time>2011-06-29T02:26:32Z</time>
      </trkpt>
      <trkpt lat="48.6695" lon="6.48731">
        <ele>259</ele>
        <time>2011-06-29T02:26:40Z</time>
      </trkpt>
      <trkpt lat="48.67172" lon="6.48639">
        <ele>258</ele>
        <time>2011-06-29T02:27:11Z</time>
      </trkpt>
      <trkpt lat="48.67213" lon="6.48628">
        <ele>259</ele>
        <time>2011-06-29T02:27:21Z</time>
      </trkpt>
      <trkpt lat="48.67237" lon="6.48631">
        <ele>259</ele>
        <time>2011-06-29T02:27:27Z</time>
      </trkpt>
      <trkpt lat="48.67261" lon="6.48641">
        <ele>260</ele>
        <time>2011-06-29T02:27:33Z</time>
      </trkpt>
      <trkpt lat="48.67279" lon="6.48653">
        <ele>261</ele>
        <time>2011-06-29T02:27:38Z</time>
      </trkpt>
      <trkpt lat="48.67299" lon="6.48675">
        <ele>260</ele>
        <time>2011-06-29T02:27:41Z</time>
      </trkpt>
      <trkpt lat="48.67346" lon="6.48761">
        <ele>258</ele>
        <time>2011-06-29T02:27:51Z</time>
      </trkpt>
      <trkpt lat="48.67444" lon="6.48984">
        <ele>251</ele>
        <time>2011-06-29T02:28:15Z</time>
      </trkpt>
      <trkpt lat="48.67462" lon="6.49014">
        <ele>250</ele>
        <time>2011-06-29T02:28:18Z</time>
      </trkpt>
      <trkpt lat="48.67484" lon="6.4904">
        <ele>249</ele>
        <time>2011-06-29T02:28:22Z</time>
      </trkpt>
      <trkpt lat="48.67516" lon="6.49059">
        <ele>247</ele>
        <time>2011-06-29T02:28:27Z</time>
      </trkpt>
      <trkpt lat="48.67536" lon="6.49065">
        <ele>247</ele>
        <time>2011-06-29T02:28:29Z</time>
      </trkpt>
      <trkpt lat="48.67758" lon="6.49079">
        <ele>245</ele>
        <time>2011-06-29T02:28:59Z</time>
      </trkpt>
      <trkpt lat="48.67863" lon="6.49105">
        <ele>242</ele>
        <time>2011-06-29T02:29:13Z</time>
      </trkpt>
      <trkpt lat="48.67863" lon="6.49105">
        <ele>242</ele>
        <time>2011-06-29T02:29:14Z</time>
      </trkpt>
      <trkpt lat="48.679" lon="6.49119">
        <ele>242</ele>
        <time>2011-06-29T02:29:21Z</time>
      </trkpt>
      <trkpt lat="48.67922" lon="6.49134">
        <ele>242</ele>
        <time>2011-06-29T02:29:26Z</time>
      </trkpt>
      <trkpt lat="48.67923" lon="6.49093">
        <ele>243</ele>
        <time>2011-06-29T02:29:31Z</time>
      </trkpt>
      <trkpt lat="48.6792" lon="6.49078">
        <ele>243</ele>
        <time>2011-06-29T02:29:33Z</time>
      </trkpt>
      <trkpt lat="48.67909" lon="6.49059">
        <ele>243</ele>
        <time>2011-06-29T02:29:36Z</time>
      </trkpt>
      <trkpt lat="48.6788" lon="6.49032">
        <ele>243</ele>
        <time>2011-06-29T02:29:42Z</time>
      </trkpt>
      <trkpt lat="48.67819" lon="6.48945">
        <ele>245</ele>
        <time>2011-06-29T02:29:57Z</time>
      </trkpt>
      <trkpt lat="48.67747" lon="6.48866">
        <ele>249</ele>
        <time>2011-06-29T02:30:25Z</time>
      </trkpt>
      <trkpt lat="48.67747" lon="6.48866">
        <ele>249</ele>
        <time>2011-06-29T02:30:26Z</time>
      </trkpt>
      <trkpt lat="48.67717" lon="6.48826">
        <ele>251</ele>
        <time>2011-06-29T02:30:41Z</time>
      </trkpt>
      <trkpt lat="48.67705" lon="6.48802">
        <ele>252</ele>
        <time>2011-06-29T02:30:49Z</time>
      </trkpt>
      <trkpt lat="48.67686" lon="6.48747">
        <ele>255</ele>
        <time>2011-06-29T02:31:04Z</time>
      </trkpt>
      <trkpt lat="48.67685" lon="6.48712">
        <ele>255</ele>
        <time>2011-06-29T02:31:08Z</time>
      </trkpt>
      <trkpt lat="48.67697" lon="6.48678">
        <ele>255</ele>
        <time>2011-06-29T02:31:12Z</time>
      </trkpt>
      <trkpt lat="48.67809" lon="6.48473">
        <ele>257</ele>
        <time>2011-06-29T02:31:42Z</time>
      </trkpt>
      <trkpt lat="48.67826" lon="6.48455">
        <ele>257</ele>
        <time>2011-06-29T02:31:45Z</time>
      </trkpt>
      <trkpt lat="48.67922" lon="6.48395">
        <ele>257</ele>
        <time>2011-06-29T02:31:58Z</time>
      </trkpt>
      <trkpt lat="48.67996" lon="6.48364">
        <ele>260</ele>
        <time>2011-06-29T02:32:22Z</time>
      </trkpt>
      <trkpt lat="48.6801" lon="6.48354">
        <ele>261</ele>
        <time>2011-06-29T02:32:27Z</time>
      </trkpt>
      <trkpt lat="48.68023" lon="6.48336">
        <ele>261</ele>
        <time>2011-06-29T02:32:33Z</time>
      </trkpt>
      <trkpt lat="48.68082" lon="6.48194">
        <ele>268</ele>
        <time>2011-06-29T02:33:12Z</time>
      </trkpt>
      <trkpt lat="48.68078" lon="6.48154">
        <ele>269</ele>
        <time>2011-06-29T02:33:23Z</time>
      </trkpt>
      <trkpt lat="48.68021" lon="6.48014">
        <ele>277</ele>
        <time>2011-06-29T02:34:06Z</time>
      </trkpt>
      <trkpt lat="48.67963" lon="6.47889">
        <ele>282</ele>
        <time>2011-06-29T02:34:39Z</time>
      </trkpt>
      <trkpt lat="48.67942" lon="6.47808">
        <ele>285</ele>
        <time>2011-06-29T02:35:02Z</time>
      </trkpt>
      <trkpt lat="48.67938" lon="6.47766">
        <ele>287</ele>
        <time>2011-06-29T02:35:13Z</time>
      </trkpt>
      <trkpt lat="48.67904" lon="6.4768">
        <ele>292</ele>
        <time>2011-06-29T02:35:40Z</time>
      </trkpt>
      <trkpt lat="48.67904" lon="6.4768">
        <ele>292</ele>
        <time>2011-06-29T02:35:41Z</time>
      </trkpt>
      <trkpt lat="48.67866" lon="6.47581">
        <ele>296</ele>
        <time>2011-06-29T02:36:08Z</time>
      </trkpt>
      <trkpt lat="48.67857" lon="6.47541">
        <ele>298</ele>
        <time>2011-06-29T02:36:19Z</time>
      </trkpt>
      <trkpt lat="48.67851" lon="6.47313">
        <ele>310</ele>
        <time>2011-06-29T02:37:27Z</time>
      </trkpt>
      <trkpt lat="48.67855" lon="6.47281">
        <ele>310</ele>
        <time>2011-06-29T02:37:31Z</time>
      </trkpt>
      <trkpt lat="48.67878" lon="6.47195">
        <ele>311</ele>
        <time>2011-06-29T02:37:43Z</time>
      </trkpt>
      <trkpt lat="48.67908" lon="6.47057">
        <ele>313</ele>
        <time>2011-06-29T02:38:03Z</time>
      </trkpt>
      <trkpt lat="48.67919" lon="6.47023">
        <ele>312</ele>
        <time>2011-06-29T02:38:06Z</time>
      </trkpt>
      <trkpt lat="48.67939" lon="6.46983">
        <ele>310</ele>
        <time>2011-06-29T02:38:10Z</time>
      </trkpt>
      <trkpt lat="48.6806" lon="6.46805">
        <ele>304</ele>
        <time>2011-06-29T02:38:33Z</time>
      </trkpt>
      <trkpt lat="48.68097" lon="6.46778">
        <ele>302</ele>
        <time>2011-06-29T02:38:38Z</time>
      </trkpt>
      <trkpt lat="48.68139" lon="6.46756">
        <ele>301</ele>
        <time>2011-06-29T02:38:44Z</time>
      </trkpt>
      <trkpt lat="48.68155" lon="6.46758">
        <ele>301</ele>
        <time>2011-06-29T02:38:46Z</time>
      </trkpt>
      <trkpt lat="48.68166" lon="6.46766">
        <ele>300</ele>
        <time>2011-06-29T02:38:48Z</time>
      </trkpt>
      <trkpt lat="48.68235" lon="6.4685">
        <ele>298</ele>
        <time>2011-06-29T02:39:00Z</time>
      </trkpt>
      <trkpt lat="48.68257" lon="6.46867">
        <ele>297</ele>
        <time>2011-06-29T02:39:03Z</time>
      </trkpt>
      <trkpt lat="48.68317" lon="6.46882">
        <ele>297</ele>
        <time>2011-06-29T02:39:11Z</time>
      </trkpt>
      <trkpt lat="48.68332" lon="6.46881">
        <ele>297</ele>
        <time>2011-06-29T02:39:13Z</time>
      </trkpt>
      <trkpt lat="48.68358" lon="6.46868">
        <ele>295</ele>
        <time>2011-06-29T02:39:17Z</time>
      </trkpt>
      <trkpt lat="48.68394" lon="6.46831">
        <ele>294</ele>
        <time>2011-06-29T02:39:23Z</time>
      </trkpt>
      <trkpt lat="48.68459" lon="6.4675">
        <ele>291</ele>
        <time>2011-06-29T02:39:34Z</time>
      </trkpt>
      <trkpt lat="48.68554" lon="6.46666">
        <ele>287</ele>
        <time>2011-06-29T02:39:49Z</time>
      </trkpt>
      <trkpt lat="48.68586" lon="6.46628">
        <ele>285</ele>
        <time>2011-06-29T02:39:54Z</time>
      </trkpt>
      <trkpt lat="48.6861" lon="6.46588">
        <ele>284</ele>
        <time>2011-06-29T02:39:59Z</time>
      </trkpt>
      <trkpt lat="48.68643" lon="6.46512">
        <ele>283</ele>
        <time>2011-06-29T02:40:07Z</time>
      </trkpt>
      <trkpt lat="48.68673" lon="6.46471">
        <ele>282</ele>
        <time>2011-06-29T02:40:12Z</time>
      </trkpt>
      <trkpt lat="48.68673" lon="6.46471">
        <ele>282</ele>
        <time>2011-06-29T02:40:13Z</time>
      </trkpt>
      <trkpt lat="48.68692" lon="6.46452">
        <ele>281</ele>
        <time>2011-06-29T02:40:16Z</time>
      </trkpt>
      <trkpt lat="48.68752" lon="6.46423">
        <ele>281</ele>
        <time>2011-06-29T02:40:25Z</time>
      </trkpt>
      <trkpt lat="48.68875" lon="6.46371">
        <ele>280</ele>
        <time>2011-06-29T02:40:42Z</time>
      </trkpt>
      <trkpt lat="48.6902" lon="6.46319">
        <ele>279</ele>
        <time>2011-06-29T02:41:02Z</time>
      </trkpt>
      <trkpt lat="48.69005" lon="6.46268">
        <ele>277</ele>
        <time>2011-06-29T02:41:07Z</time>
      </trkpt>
      <trkpt lat="48.68967" lon="6.46207">
        <ele>276</ele>
        <time>2011-06-29T02:41:14Z</time>
      </trkpt>
      <trkpt lat="48.68956" lon="6.46182">
        <ele>275</ele>
        <time>2011-06-29T02:41:17Z</time>
      </trkpt>
      <trkpt lat="48.68944" lon="6.46132">
        <ele>273</ele>
        <time>2011-06-29T02:41:21Z</time>
      </trkpt>
      <trkpt lat="48.68925" lon="6.46018">
        <ele>271</ele>
        <time>2011-06-29T02:41:32Z</time>
      </trkpt>
      <trkpt lat="48.68914" lon="6.45999">
        <ele>271</ele>
        <time>2011-06-29T02:41:34Z</time>
      </trkpt>
      <trkpt lat="48.68853" lon="6.45951">
        <ele>271</ele>
        <time>2011-06-29T02:41:43Z</time>
      </trkpt>
      <trkpt lat="48.68838" lon="6.45929">
        <ele>271</ele>
        <time>2011-06-29T02:41:46Z</time>
      </trkpt>
      <trkpt lat="48.68775" lon="6.45794">
        <ele>271</ele>
        <time>2011-06-29T02:42:01Z</time>
      </trkpt>
      <trkpt lat="48.68762" lon="6.45741">
        <ele>270</ele>
        <time>2011-06-29T02:42:06Z</time>
      </trkpt>
      <trkpt lat="48.68667" lon="6.45528">
        <ele>266</ele>
        <time>2011-06-29T02:42:28Z</time>
      </trkpt>
      <trkpt lat="48.68635" lon="6.45476">
        <ele>266</ele>
        <time>2011-06-29T02:42:34Z</time>
      </trkpt>
      <trkpt lat="48.68601" lon="6.45431">
        <ele>266</ele>
        <time>2011-06-29T02:42:41Z</time>
      </trkpt>
      <trkpt lat="48.68573" lon="6.45404">
        <ele>265</ele>
        <time>2011-06-29T02:42:45Z</time>
      </trkpt>
      <trkpt lat="48.68507" lon="6.45359">
        <ele>264</ele>
        <time>2011-06-29T02:42:55Z</time>
      </trkpt>
      <trkpt lat="48.68411" lon="6.45317">
        <ele>263</ele>
        <time>2011-06-29T02:43:08Z</time>
      </trkpt>
      <trkpt lat="48.68386" lon="6.453">
        <ele>262</ele>
        <time>2011-06-29T02:43:12Z</time>
      </trkpt>
      <trkpt lat="48.68367" lon="6.45276">
        <ele>262</ele>
        <time>2011-06-29T02:43:15Z</time>
      </trkpt>
      <trkpt lat="48.68325" lon="6.45197">
        <ele>262</ele>
        <time>2011-06-29T02:43:24Z</time>
      </trkpt>
      <trkpt lat="48.68285" lon="6.45142">
        <ele>261</ele>
        <time>2011-06-29T02:43:31Z</time>
      </trkpt>
      <trkpt lat="48.68127" lon="6.44959">
        <ele>258</ele>
        <time>2011-06-29T02:43:58Z</time>
      </trkpt>
      <trkpt lat="48.68065" lon="6.44899">
        <ele>259</ele>
        <time>2011-06-29T02:44:15Z</time>
      </trkpt>
      <trkpt lat="48.68025" lon="6.4487">
        <ele>261</ele>
        <time>2011-06-29T02:44:25Z</time>
      </trkpt>
      <trkpt lat="48.67965" lon="6.44838">
        <ele>262</ele>
        <time>2011-06-29T02:44:41Z</time>
      </trkpt>
      <trkpt lat="48.67901" lon="6.44789">
        <ele>265</ele>
        <time>2011-06-29T02:45:00Z</time>
      </trkpt>
      <trkpt lat="48.6784" lon="6.44735">
        <ele>260</ele>
        <time>2011-06-29T02:45:09Z</time>
      </trkpt>
      <trkpt lat="48.6777" lon="6.44707">
        <ele>256</ele>
        <time>2011-06-29T02:45:19Z</time>
      </trkpt>
      <trkpt lat="48.67723" lon="6.44677">
        <ele>255</ele>
        <time>2011-06-29T02:45:25Z</time>
      </trkpt>
      <trkpt lat="48.67611" lon="6.44593">
        <ele>255</ele>
        <time>2011-06-29T02:45:42Z</time>
      </trkpt>
      <trkpt lat="48.67536" lon="6.44529">
        <ele>254</ele>
        <time>2011-06-29T02:45:54Z</time>
      </trkpt>
      <trkpt lat="48.67159" lon="6.44352">
        <ele>251</ele>
        <time>2011-06-29T02:46:46Z</time>
      </trkpt>
      <trkpt lat="48.66886" lon="6.44253">
        <ele>248</ele>
        <time>2011-06-29T02:47:24Z</time>
      </trkpt>
      <trkpt lat="48.66761" lon="6.44124">
        <ele>248</ele>
        <time>2011-06-29T02:47:44Z</time>
      </trkpt>
      <trkpt lat="48.66743" lon="6.4411">
        <ele>247</ele>
        <time>2011-06-29T02:47:47Z</time>
      </trkpt>
      <trkpt lat="48.66563" lon="6.44024">
        <ele>246</ele>
        <time>2011-06-29T02:48:12Z</time>
      </trkpt>
      <trkpt lat="48.66493" lon="6.43997">
        <ele>245</ele>
        <time>2011-06-29T02:48:22Z</time>
      </trkpt>
      <trkpt lat="48.66455" lon="6.43988">
        <ele>245</ele>
        <time>2011-06-29T02:48:27Z</time>
      </trkpt>
      <trkpt lat="48.6639" lon="6.43992">
        <ele>243</ele>
        <time>2011-06-29T02:48:35Z</time>
      </trkpt>
      <trkpt lat="48.66352" lon="6.44">
        <ele>242</ele>
        <time>2011-06-29T02:48:41Z</time>
      </trkpt>
      <trkpt lat="48.66257" lon="6.44033">
        <ele>238</ele>
        <time>2011-06-29T02:48:54Z</time>
      </trkpt>
      <trkpt lat="48.66216" lon="6.44032">
        <ele>237</ele>
        <time>2011-06-29T02:48:59Z</time>
      </trkpt>
      <trkpt lat="48.66077" lon="6.44011">
        <ele>236</ele>
        <time>2011-06-29T02:49:18Z</time>
      </trkpt>
      <trkpt lat="48.66054" lon="6.43987">
        <ele>235</ele>
        <time>2011-06-29T02:49:21Z</time>
      </trkpt>
      <trkpt lat="48.66022" lon="6.43943">
        <ele>234</ele>
        <time>2011-06-29T02:49:27Z</time>
      </trkpt>
      <trkpt lat="48.66009" lon="6.43923">
        <ele>234</ele>
        <time>2011-06-29T02:49:30Z</time>
      </trkpt>
      <trkpt lat="48.66" lon="6.43898">
        <ele>234</ele>
        <time>2011-06-29T02:49:32Z</time>
      </trkpt>
      <trkpt lat="48.65998" lon="6.43866">
        <ele>233</ele>
        <time>2011-06-29T02:49:35Z</time>
      </trkpt>
      <trkpt lat="48.66001" lon="6.43846">
        <ele>232</ele>
        <time>2011-06-29T02:49:37Z</time>
      </trkpt>
      <trkpt lat="48.66018" lon="6.43779">
        <ele>231</ele>
        <time>2011-06-29T02:49:43Z</time>
      </trkpt>
      <trkpt lat="48.66014" lon="6.43762">
        <ele>231</ele>
        <time>2011-06-29T02:49:45Z</time>
      </trkpt>
      <trkpt lat="48.66004" lon="6.43748">
        <ele>231</ele>
        <time>2011-06-29T02:49:47Z</time>
      </trkpt>
      <trkpt lat="48.65958" lon="6.43707">
        <ele>231</ele>
        <time>2011-06-29T02:49:54Z</time>
      </trkpt>
      <trkpt lat="48.65836" lon="6.43666">
        <ele>231</ele>
        <time>2011-06-29T02:50:10Z</time>
      </trkpt>
      <trkpt lat="48.65818" lon="6.43653">
        <ele>232</ele>
        <time>2011-06-29T02:50:17Z</time>
      </trkpt>
      <trkpt lat="48.65804" lon="6.4363">
        <ele>233</ele>
        <time>2011-06-29T02:50:24Z</time>
      </trkpt>
      <trkpt lat="48.6578" lon="6.43609">
        <ele>234</ele>
        <time>2011-06-29T02:50:34Z</time>
      </trkpt>
      <trkpt lat="48.65752" lon="6.43606">
        <ele>236</ele>
        <time>2011-06-29T02:50:43Z</time>
      </trkpt>
      <trkpt lat="48.65621" lon="6.43615">
        <ele>235</ele>
        <time>2011-06-29T02:51:01Z</time>
      </trkpt>
      <trkpt lat="48.65504" lon="6.43658">
        <ele>228</ele>
        <time>2011-06-29T02:51:17Z</time>
      </trkpt>
      <trkpt lat="48.65437" lon="6.43676">
        <ele>227</ele>
        <time>2011-06-29T02:51:26Z</time>
      </trkpt>
      <trkpt lat="48.65404" lon="6.43666">
        <ele>227</ele>
        <time>2011-06-29T02:51:31Z</time>
      </trkpt>
      <trkpt lat="48.65342" lon="6.4362">
        <ele>228</ele>
        <time>2011-06-29T02:51:46Z</time>
      </trkpt>
      <trkpt lat="48.65231" lon="6.43594">
        <ele>231</ele>
        <time>2011-06-29T02:52:11Z</time>
      </trkpt>
      <trkpt lat="48.65197" lon="6.43609">
        <ele>229</ele>
        <time>2011-06-29T02:52:15Z</time>
      </trkpt>
      <trkpt lat="48.65111" lon="6.43683">
        <ele>227</ele>
        <time>2011-06-29T02:52:29Z</time>
      </trkpt>
      <trkpt lat="48.65022" lon="6.4372">
        <ele>225</ele>
        <time>2011-06-29T02:52:41Z</time>
      </trkpt>
      <trkpt lat="48.6499" lon="6.43719">
        <ele>227</ele>
        <time>2011-06-29T02:52:56Z</time>
      </trkpt>
      <trkpt lat="48.64939" lon="6.43663">
        <ele>233</ele>
        <time>2011-06-29T02:53:26Z</time>
      </trkpt>
      <trkpt lat="48.64914" lon="6.43651">
        <ele>233</ele>
        <time>2011-06-29T02:53:33Z</time>
      </trkpt>
      <trkpt lat="48.64848" lon="6.43678">
        <ele>236</ele>
        <time>2011-06-29T02:53:50Z</time>
      </trkpt>
      <trkpt lat="48.6473" lon="6.43749">
        <ele>236</ele>
        <time>2011-06-29T02:54:07Z</time>
      </trkpt>
      <trkpt lat="48.64715" lon="6.43754">
        <ele>236</ele>
        <time>2011-06-29T02:54:09Z</time>
      </trkpt>
      <trkpt lat="48.64715" lon="6.43754">
        <ele>236</ele>
        <time>2011-06-29T02:54:10Z</time>
      </trkpt>
      <trkpt lat="48.64631" lon="6.4376">
        <ele>235</ele>
        <time>2011-06-29T02:54:22Z</time>
      </trkpt>
      <trkpt lat="48.64577" lon="6.43752">
        <ele>235</ele>
        <time>2011-06-29T02:54:29Z</time>
      </trkpt>
      <trkpt lat="48.64649" lon="6.4366">
        <ele>238</ele>
        <time>2011-06-29T02:54:53Z</time>
      </trkpt>
      <trkpt lat="48.64671" lon="6.43624">
        <ele>238</ele>
        <time>2011-06-29T02:55:00Z</time>
      </trkpt>
      <trkpt lat="48.64685" lon="6.43598">
        <ele>239</ele>
        <time>2011-06-29T02:55:05Z</time>
      </trkpt>
      <trkpt lat="48.64736" lon="6.43468">
        <ele>241</ele>
        <time>2011-06-29T02:55:26Z</time>
      </trkpt>
      <trkpt lat="48.64769" lon="6.43405">
        <ele>241</ele>
        <time>2011-06-29T02:55:37Z</time>
      </trkpt>
      <trkpt lat="48.64818" lon="6.4334">
        <ele>243</ele>
        <time>2011-06-29T02:55:50Z</time>
      </trkpt>
      <trkpt lat="48.64927" lon="6.43212">
        <ele>244</ele>
        <time>2011-06-29T02:56:12Z</time>
      </trkpt>
      <trkpt lat="48.64996" lon="6.43148">
        <ele>246</ele>
        <time>2011-06-29T02:56:33Z</time>
      </trkpt>
      <trkpt lat="48.65129" lon="6.43046">
        <ele>251</ele>
        <time>2011-06-29T02:57:11Z</time>
      </trkpt>
      <trkpt lat="48.65161" lon="6.43032">
        <ele>252</ele>
        <time>2011-06-29T02:57:21Z</time>
      </trkpt>
      <trkpt lat="48.65281" lon="6.43005">
        <ele>258</ele>
        <time>2011-06-29T02:58:00Z</time>
      </trkpt>
      <trkpt lat="48.65306" lon="6.42981">
        <ele>260</ele>
        <time>2011-06-29T02:58:12Z</time>
      </trkpt>
      <trkpt lat="48.65333" lon="6.42946">
        <ele>262</ele>
        <time>2011-06-29T02:58:27Z</time>
      </trkpt>
      <trkpt lat="48.65354" lon="6.42911">
        <ele>265</ele>
        <time>2011-06-29T02:58:41Z</time>
      </trkpt>
      <trkpt lat="48.65381" lon="6.42852">
        <ele>270</ele>
        <time>2011-06-29T02:59:09Z</time>
      </trkpt>
      <trkpt lat="48.65393" lon="6.42835">
        <ele>272</ele>
        <time>2011-06-29T02:59:19Z</time>
      </trkpt>
      <trkpt lat="48.65446" lon="6.42814">
        <ele>279</ele>
        <time>2011-06-29T02:59:52Z</time>
      </trkpt>
      <trkpt lat="48.65451" lon="6.42806">
        <ele>279</ele>
        <time>2011-06-29T02:59:56Z</time>
      </trkpt>
      <trkpt lat="48.65455" lon="6.42781">
        <ele>280</ele>
        <time>2011-06-29T03:00:03Z</time>
      </trkpt>
      <trkpt lat="48.65441" lon="6.42754">
        <ele>282</ele>
        <time>2011-06-29T03:00:13Z</time>
      </trkpt>
      <trkpt lat="48.65361" lon="6.427">
        <ele>289</ele>
        <time>2011-06-29T03:00:50Z</time>
      </trkpt>
      <trkpt lat="48.65311" lon="6.42704">
        <ele>291</ele>
        <time>2011-06-29T03:01:05Z</time>
      </trkpt>
      <trkpt lat="48.65294" lon="6.427">
        <ele>291</ele>
        <time>2011-06-29T03:01:10Z</time>
      </trkpt>
      <trkpt lat="48.65282" lon="6.42682">
        <ele>292</ele>
        <time>2011-06-29T03:01:15Z</time>
      </trkpt>
      <trkpt lat="48.6528" lon="6.42662">
        <ele>292</ele>
        <time>2011-06-29T03:01:19Z</time>
      </trkpt>
      <trkpt lat="48.65283" lon="6.42645">
        <ele>293</ele>
        <time>2011-06-29T03:01:23Z</time>
      </trkpt>
      <trkpt lat="48.65309" lon="6.42624">
        <ele>294</ele>
        <time>2011-06-29T03:01:31Z</time>
      </trkpt>
      <trkpt lat="48.65384" lon="6.42585">
        <ele>297</ele>
        <time>2011-06-29T03:01:55Z</time>
      </trkpt>
      <trkpt lat="48.6541" lon="6.42563">
        <ele>299</ele>
        <time>2011-06-29T03:02:03Z</time>
      </trkpt>
      <trkpt lat="48.65639" lon="6.42274">
        <ele>294</ele>
        <time>2011-06-29T03:02:43Z</time>
      </trkpt>
      <trkpt lat="48.65667" lon="6.42226">
        <ele>292</ele>
        <time>2011-06-29T03:02:49Z</time>
      </trkpt>
      <trkpt lat="48.65697" lon="6.42161">
        <ele>290</ele>
        <time>2011-06-29T03:02:56Z</time>
      </trkpt>
      <trkpt lat="48.6582" lon="6.41825">
        <ele>283</ele>
        <time>2011-06-29T03:03:30Z</time>
      </trkpt>
      <trkpt lat="48.65835" lon="6.418">
        <ele>283</ele>
        <time>2011-06-29T03:03:37Z</time>
      </trkpt>
      <trkpt lat="48.65911" lon="6.41725">
        <ele>288</ele>
        <time>2011-06-29T03:04:05Z</time>
      </trkpt>
      <trkpt lat="48.66164" lon="6.41492">
        <ele>269</ele>
        <time>2011-06-29T03:04:44Z</time>
      </trkpt>
      <trkpt lat="48.66621" lon="6.41033">
        <ele>252</ele>
        <time>2011-06-29T03:05:58Z</time>
      </trkpt>
      <trkpt lat="48.66651" lon="6.41014">
        <ele>251</ele>
        <time>2011-06-29T03:06:02Z</time>
      </trkpt>
      <trkpt lat="48.66838" lon="6.40921">
        <ele>248</ele>
        <time>2011-06-29T03:06:28Z</time>
      </trkpt>
      <trkpt lat="48.66838" lon="6.40921">
        <ele>248</ele>
        <time>2011-06-29T03:06:29Z</time>
      </trkpt>
      <trkpt lat="48.6708" lon="6.40804">
        <ele>246</ele>
        <time>2011-06-29T03:07:03Z</time>
      </trkpt>
      <trkpt lat="48.67073" lon="6.40774">
        <ele>245</ele>
        <time>2011-06-29T03:07:06Z</time>
      </trkpt>
      <trkpt lat="48.67052" lon="6.40723">
        <ele>245</ele>
        <time>2011-06-29T03:07:11Z</time>
      </trkpt>
      <trkpt lat="48.67033" lon="6.40692">
        <ele>245</ele>
        <time>2011-06-29T03:07:15Z</time>
      </trkpt>
      <trkpt lat="48.67013" lon="6.40669">
        <ele>245</ele>
        <time>2011-06-29T03:07:18Z</time>
      </trkpt>
      <trkpt lat="48.66995" lon="6.40667">
        <ele>245</ele>
        <time>2011-06-29T03:07:22Z</time>
      </trkpt>
      <trkpt lat="48.66938" lon="6.40694">
        <ele>246</ele>
        <time>2011-06-29T03:07:35Z</time>
      </trkpt>
      <trkpt lat="48.66922" lon="6.40689">
        <ele>247</ele>
        <time>2011-06-29T03:07:39Z</time>
      </trkpt>
      <trkpt lat="48.66914" lon="6.40677">
        <ele>247</ele>
        <time>2011-06-29T03:07:43Z</time>
      </trkpt>
      <trkpt lat="48.66889" lon="6.40608">
        <ele>249</ele>
        <time>2011-06-29T03:07:59Z</time>
      </trkpt>
      <trkpt lat="48.66763" lon="6.40313">
        <ele>260</ele>
        <time>2011-06-29T03:09:11Z</time>
      </trkpt>
      <trkpt lat="48.66727" lon="6.40236">
        <ele>261</ele>
        <time>2011-06-29T03:09:24Z</time>
      </trkpt>
      <trkpt lat="48.6664" lon="6.40101">
        <ele>264</ele>
        <time>2011-06-29T03:09:51Z</time>
      </trkpt>
      <trkpt lat="48.66535" lon="6.39897">
        <ele>261</ele>
        <time>2011-06-29T03:10:14Z</time>
      </trkpt>
      <trkpt lat="48.6646" lon="6.39811">
        <ele>257</ele>
        <time>2011-06-29T03:10:27Z</time>
      </trkpt>
      <trkpt lat="48.66427" lon="6.39782">
        <ele>257</ele>
        <time>2011-06-29T03:10:34Z</time>
      </trkpt>
      <trkpt lat="48.664" lon="6.3974">
        <ele>258</ele>
        <time>2011-06-29T03:10:42Z</time>
      </trkpt>
      <trkpt lat="48.66343" lon="6.39584">
        <ele>260</ele>
        <time>2011-06-29T03:11:05Z</time>
      </trkpt>
      <trkpt lat="48.66331" lon="6.39528">
        <ele>261</ele>
        <time>2011-06-29T03:11:16Z</time>
      </trkpt>
      <trkpt lat="48.66323" lon="6.39464">
        <ele>263</ele>
        <time>2011-06-29T03:11:28Z</time>
      </trkpt>
      <trkpt lat="48.66314" lon="6.39429">
        <ele>264</ele>
        <time>2011-06-29T03:11:35Z</time>
      </trkpt>
      <trkpt lat="48.66261" lon="6.39291">
        <ele>265</ele>
        <time>2011-06-29T03:11:53Z</time>
      </trkpt>
      <trkpt lat="48.6625" lon="6.39253">
        <ele>264</ele>
        <time>2011-06-29T03:11:57Z</time>
      </trkpt>
      <trkpt lat="48.66244" lon="6.39203">
        <ele>263</ele>
        <time>2011-06-29T03:12:01Z</time>
      </trkpt>
      <trkpt lat="48.66243" lon="6.39132">
        <ele>263</ele>
        <time>2011-06-29T03:12:08Z</time>
      </trkpt>
      <trkpt lat="48.66246" lon="6.39083">
        <ele>262</ele>
        <time>2011-06-29T03:12:12Z</time>
      </trkpt>
      <trkpt lat="48.66253" lon="6.39041">
        <ele>261</ele>
        <time>2011-06-29T03:12:16Z</time>
      </trkpt>
      <trkpt lat="48.66272" lon="6.38969">
        <ele>260</ele>
        <time>2011-06-29T03:12:23Z</time>
      </trkpt>
      <trkpt lat="48.66276" lon="6.38941">
        <ele>259</ele>
        <time>2011-06-29T03:12:25Z</time>
      </trkpt>
      <trkpt lat="48.66275" lon="6.38912">
        <ele>258</ele>
        <time>2011-06-29T03:12:28Z</time>
      </trkpt>
      <trkpt lat="48.66214" lon="6.38649">
        <ele>254</ele>
        <time>2011-06-29T03:12:52Z</time>
      </trkpt>
      <trkpt lat="48.66164" lon="6.38389">
        <ele>253</ele>
        <time>2011-06-29T03:13:16Z</time>
      </trkpt>
      <trkpt lat="48.66163" lon="6.38357">
        <ele>252</ele>
        <time>2011-06-29T03:13:19Z</time>
      </trkpt>
      <trkpt lat="48.6618" lon="6.38297">
        <ele>252</ele>
        <time>2011-06-29T03:13:25Z</time>
      </trkpt>
      <trkpt lat="48.66182" lon="6.38265">
        <ele>252</ele>
        <time>2011-06-29T03:13:28Z</time>
      </trkpt>
      <trkpt lat="48.66175" lon="6.38241">
        <ele>252</ele>
        <time>2011-06-29T03:13:30Z</time>
      </trkpt>
      <trkpt lat="48.66097" lon="6.38066">
        <ele>255</ele>
        <time>2011-06-29T03:14:01Z</time>
      </trkpt>
      <trkpt lat="48.66085" lon="6.38028">
        <ele>254</ele>
        <time>2011-06-29T03:14:04Z</time>
      </trkpt>
      <trkpt lat="48.66085" lon="6.38007">
        <ele>253</ele>
        <time>2011-06-29T03:14:06Z</time>
      </trkpt>
      <trkpt lat="48.66089" lon="6.37991">
        <ele>253</ele>
        <time>2011-06-29T03:14:08Z</time>
      </trkpt>
      <trkpt lat="48.66179" lon="6.37797">
        <ele>249</ele>
        <time>2011-06-29T03:14:29Z</time>
      </trkpt>
      <trkpt lat="48.66201" lon="6.37741">
        <ele>249</ele>
        <time>2011-06-29T03:14:37Z</time>
      </trkpt>
      <trkpt lat="48.6621" lon="6.37707">
        <ele>250</ele>
        <time>2011-06-29T03:14:42Z</time>
      </trkpt>
      <trkpt lat="48.66213" lon="6.37642">
        <ele>251</ele>
        <time>2011-06-29T03:14:51Z</time>
      </trkpt>
      <trkpt lat="48.66195" lon="6.37519">
        <ele>252</ele>
        <time>2011-06-29T03:15:07Z</time>
      </trkpt>
      <trkpt lat="48.66187" lon="6.37409">
        <ele>253</ele>
        <time>2011-06-29T03:15:20Z</time>
      </trkpt>
      <trkpt lat="48.66187" lon="6.37374">
        <ele>252</ele>
        <time>2011-06-29T03:15:23Z</time>
      </trkpt>
      <trkpt lat="48.66203" lon="6.3723">
        <ele>251</ele>
        <time>2011-06-29T03:15:36Z</time>
      </trkpt>
      <trkpt lat="48.66168" lon="6.37074">
        <ele>251</ele>
        <time>2011-06-29T03:15:51Z</time>
      </trkpt>
      <trkpt lat="48.66175" lon="6.3701">
        <ele>251</ele>
        <time>2011-06-29T03:15:56Z</time>
      </trkpt>
      <trkpt lat="48.66187" lon="6.36944">
        <ele>251</ele>
        <time>2011-06-29T03:16:02Z</time>
      </trkpt>
      <trkpt lat="48.66204" lon="6.36883">
        <ele>251</ele>
        <time>2011-06-29T03:16:08Z</time>
      </trkpt>
      <trkpt lat="48.66249" lon="6.36771">
        <ele>249</ele>
        <time>2011-06-29T03:16:20Z</time>
      </trkpt>
      <trkpt lat="48.66262" lon="6.36727">
        <ele>249</ele>
        <time>2011-06-29T03:16:24Z</time>
      </trkpt>
      <trkpt lat="48.66262" lon="6.36698">
        <ele>249</ele>
        <time>2011-06-29T03:16:29Z</time>
      </trkpt>
      <trkpt lat="48.66239" lon="6.36603">
        <ele>252</ele>
        <time>2011-06-29T03:16:48Z</time>
      </trkpt>
      <trkpt lat="48.66239" lon="6.36603">
        <ele>252</ele>
        <time>2011-06-29T03:16:49Z</time>
      </trkpt>
      <trkpt lat="48.66216" lon="6.36521">
        <ele>254</ele>
        <time>2011-06-29T03:17:05Z</time>
      </trkpt>
      <trkpt lat="48.66192" lon="6.36457">
        <ele>256</ele>
        <time>2011-06-29T03:17:19Z</time>
      </trkpt>
      <trkpt lat="48.66208" lon="6.36431">
        <ele>256</ele>
        <time>2011-06-29T03:17:23Z</time>
      </trkpt>
      <trkpt lat="48.66179" lon="6.36343">
        <ele>256</ele>
        <time>2011-06-29T03:17:34Z</time>
      </trkpt>
      <trkpt lat="48.66159" lon="6.36296">
        <ele>257</ele>
        <time>2011-06-29T03:17:40Z</time>
      </trkpt>
      <trkpt lat="48.66023" lon="6.36032">
        <ele>256</ele>
        <time>2011-06-29T03:18:09Z</time>
      </trkpt>
      <trkpt lat="48.66003" lon="6.35984">
        <ele>256</ele>
        <time>2011-06-29T03:18:15Z</time>
      </trkpt>
      <trkpt lat="48.6595" lon="6.35748">
        <ele>257</ele>
        <time>2011-06-29T03:18:40Z</time>
      </trkpt>
      <trkpt lat="48.65898" lon="6.35566">
        <ele>255</ele>
        <time>2011-06-29T03:18:58Z</time>
      </trkpt>
      <trkpt lat="48.6589" lon="6.35526">
        <ele>254</ele>
        <time>2011-06-29T03:19:01Z</time>
      </trkpt>
      <trkpt lat="48.65883" lon="6.35458">
        <ele>253</ele>
        <time>2011-06-29T03:19:07Z</time>
      </trkpt>
      <trkpt lat="48.65869" lon="6.35398">
        <ele>252</ele>
        <time>2011-06-29T03:19:13Z</time>
      </trkpt>
      <trkpt lat="48.65838" lon="6.35334">
        <ele>252</ele>
        <time>2011-06-29T03:19:20Z</time>
      </trkpt>
      <trkpt lat="48.65825" lon="6.35317">
        <ele>252</ele>
        <time>2011-06-29T03:19:22Z</time>
      </trkpt>
      <trkpt lat="48.65776" lon="6.35276">
        <ele>252</ele>
        <time>2011-06-29T03:19:30Z</time>
      </trkpt>
      <trkpt lat="48.65729" lon="6.35216">
        <ele>253</ele>
        <time>2011-06-29T03:19:44Z</time>
      </trkpt>
      <trkpt lat="48.65719" lon="6.35197">
        <ele>253</ele>
        <time>2011-06-29T03:19:48Z</time>
      </trkpt>
      <trkpt lat="48.65697" lon="6.35144">
        <ele>255</ele>
        <time>2011-06-29T03:19:58Z</time>
      </trkpt>
      <trkpt lat="48.65675" lon="6.35068">
        <ele>255</ele>
        <time>2011-06-29T03:20:07Z</time>
      </trkpt>
      <trkpt lat="48.65566" lon="6.34775">
        <ele>257</ele>
        <time>2011-06-29T03:20:43Z</time>
      </trkpt>
      <trkpt lat="48.65402" lon="6.34461">
        <ele>263</ele>
        <time>2011-06-29T03:21:42Z</time>
      </trkpt>
      <trkpt lat="48.65329" lon="6.34361">
        <ele>267</ele>
        <time>2011-06-29T03:22:11Z</time>
      </trkpt>
      <trkpt lat="48.65283" lon="6.34272">
        <ele>268</ele>
        <time>2011-06-29T03:22:29Z</time>
      </trkpt>
      <trkpt lat="48.65215" lon="6.34121">
        <ele>272</ele>
        <time>2011-06-29T03:22:57Z</time>
      </trkpt>
      <trkpt lat="48.65181" lon="6.34022">
        <ele>273</ele>
        <time>2011-06-29T03:23:11Z</time>
      </trkpt>
      <trkpt lat="48.65155" lon="6.33924">
        <ele>274</ele>
        <time>2011-06-29T03:23:24Z</time>
      </trkpt>
      <trkpt lat="48.65143" lon="6.33771">
        <ele>274</ele>
        <time>2011-06-29T03:23:38Z</time>
      </trkpt>
      <trkpt lat="48.65131" lon="6.33713">
        <ele>273</ele>
        <time>2011-06-29T03:23:43Z</time>
      </trkpt>
      <trkpt lat="48.6509" lon="6.33581">
        <ele>273</ele>
        <time>2011-06-29T03:23:56Z</time>
      </trkpt>
      <trkpt lat="48.65068" lon="6.33532">
        <ele>273</ele>
        <time>2011-06-29T03:24:02Z</time>
      </trkpt>
      <trkpt lat="48.64936" lon="6.33344">
        <ele>273</ele>
        <time>2011-06-29T03:24:26Z</time>
      </trkpt>
      <trkpt lat="48.64761" lon="6.33222">
        <ele>268</ele>
        <time>2011-06-29T03:24:51Z</time>
      </trkpt>
      <trkpt lat="48.64714" lon="6.33173">
        <ele>265</ele>
        <time>2011-06-29T03:24:59Z</time>
      </trkpt>
      <trkpt lat="48.64461" lon="6.32879">
        <ele>250</ele>
        <time>2011-06-29T03:25:42Z</time>
      </trkpt>
      <trkpt lat="48.64338" lon="6.32709">
        <ele>241</ele>
        <time>2011-06-29T03:26:04Z</time>
      </trkpt>
      <trkpt lat="48.64315" lon="6.32697">
        <ele>239</ele>
        <time>2011-06-29T03:26:07Z</time>
      </trkpt>
      <trkpt lat="48.64284" lon="6.32693">
        <ele>238</ele>
        <time>2011-06-29T03:26:11Z</time>
      </trkpt>
      <trkpt lat="48.64135" lon="6.3271">
        <ele>232</ele>
        <time>2011-06-29T03:26:31Z</time>
      </trkpt>
      <trkpt lat="48.64077" lon="6.32692">
        <ele>230</ele>
        <time>2011-06-29T03:26:39Z</time>
      </trkpt>
      <trkpt lat="48.64037" lon="6.32662">
        <ele>229</ele>
        <time>2011-06-29T03:26:45Z</time>
      </trkpt>
      <trkpt lat="48.63956" lon="6.32561">
        <ele>227</ele>
        <time>2011-06-29T03:26:59Z</time>
      </trkpt>
      <trkpt lat="48.63924" lon="6.32529">
        <ele>226</ele>
        <time>2011-06-29T03:27:04Z</time>
      </trkpt>
      <trkpt lat="48.63857" lon="6.32482">
        <ele>226</ele>
        <time>2011-06-29T03:27:14Z</time>
      </trkpt>
      <trkpt lat="48.63808" lon="6.32441">
        <ele>224</ele>
        <time>2011-06-29T03:27:22Z</time>
      </trkpt>
      <trkpt lat="48.63755" lon="6.32394">
        <ele>223</ele>
        <time>2011-06-29T03:27:30Z</time>
      </trkpt>
      <trkpt lat="48.63745" lon="6.32377">
        <ele>222</ele>
        <time>2011-06-29T03:27:32Z</time>
      </trkpt>
      <trkpt lat="48.63694" lon="6.32338">
        <ele>220</ele>
        <time>2011-06-29T03:27:40Z</time>
      </trkpt>
      <trkpt lat="48.63664" lon="6.32336">
        <ele>219</ele>
        <time>2011-06-29T03:27:44Z</time>
      </trkpt>
      <trkpt lat="48.63592" lon="6.32304">
        <ele>216</ele>
        <time>2011-06-29T03:27:54Z</time>
      </trkpt>
      <trkpt lat="48.63592" lon="6.32304">
        <ele>216</ele>
        <time>2011-06-29T03:27:55Z</time>
      </trkpt>
      <trkpt lat="48.63522" lon="6.32272">
        <ele>213</ele>
        <time>2011-06-29T03:28:04Z</time>
      </trkpt>
      <trkpt lat="48.6349" lon="6.32247">
        <ele>212</ele>
        <time>2011-06-29T03:28:09Z</time>
      </trkpt>
      <trkpt lat="48.6346" lon="6.32211">
        <ele>210</ele>
        <time>2011-06-29T03:28:14Z</time>
      </trkpt>
      <trkpt lat="48.63448" lon="6.32189">
        <ele>210</ele>
        <time>2011-06-29T03:28:17Z</time>
      </trkpt>
      <trkpt lat="48.63424" lon="6.32125">
        <ele>209</ele>
        <time>2011-06-29T03:28:23Z</time>
      </trkpt>
      <trkpt lat="48.63415" lon="6.32113">
        <ele>208</ele>
        <time>2011-06-29T03:28:25Z</time>
      </trkpt>
      <trkpt lat="48.63523" lon="6.31582">
        <ele>207</ele>
        <time>2011-06-29T03:29:14Z</time>
      </trkpt>
      <trkpt lat="48.63538" lon="6.31545">
        <ele>208</ele>
        <time>2011-06-29T03:29:22Z</time>
      </trkpt>
      <trkpt lat="48.63564" lon="6.31503">
        <ele>209</ele>
        <time>2011-06-29T03:29:32Z</time>
      </trkpt>
      <trkpt lat="48.63575" lon="6.31495">
        <ele>209</ele>
        <time>2011-06-29T03:29:36Z</time>
      </trkpt>
      <trkpt lat="48.63594" lon="6.31452">
        <ele>211</ele>
        <time>2011-06-29T03:29:45Z</time>
      </trkpt>
      <trkpt lat="48.63597" lon="6.31431">
        <ele>211</ele>
        <time>2011-06-29T03:29:49Z</time>
      </trkpt>
      <trkpt lat="48.63625" lon="6.31356">
        <ele>213</ele>
        <time>2011-06-29T03:30:03Z</time>
      </trkpt>
      <trkpt lat="48.63649" lon="6.31259">
        <ele>215</ele>
        <time>2011-06-29T03:30:20Z</time>
      </trkpt>
      <trkpt lat="48.63647" lon="6.31208">
        <ele>213</ele>
        <time>2011-06-29T03:30:24Z</time>
      </trkpt>
      <trkpt lat="48.63631" lon="6.31166">
        <ele>212</ele>
        <time>2011-06-29T03:30:28Z</time>
      </trkpt>
      <trkpt lat="48.63478" lon="6.31064">
        <ele>205</ele>
        <time>2011-06-29T03:30:51Z</time>
      </trkpt>
      <trkpt lat="48.63445" lon="6.31097">
        <ele>204</ele>
        <time>2011-06-29T03:30:56Z</time>
      </trkpt>
      <trkpt lat="48.63434" lon="6.31114">
        <ele>204</ele>
        <time>2011-06-29T03:30:58Z</time>
      </trkpt>
      <trkpt lat="48.63388" lon="6.31229">
        <ele>204</ele>
        <time>2011-06-29T03:31:10Z</time>
      </trkpt>
      <trkpt lat="48.63387" lon="6.31251">
        <ele>204</ele>
        <time>2011-06-29T03:31:13Z</time>
      </trkpt>
      <trkpt lat="48.63393" lon="6.31282">
        <ele>204</ele>
        <time>2011-06-29T03:31:16Z</time>
      </trkpt>
      <trkpt lat="48.63361" lon="6.31365">
        <ele>205</ele>
        <time>2011-06-29T03:31:27Z</time>
      </trkpt>
    </trkseg>
  </trk>
</gpx>